<?xml version="1.0" encoding="UTF-8" standalone="no" ?>
<gpx xmlns="http://www.topografix.com/GPX/1/1" xmlns:xsi="http://www.w3.org/2001/XMLSchema-instance" xsi:schemaLocation="http://www.topografix.com/GPX/1/1 http://www.topografix.com/GPX/1/1/gpx.xsd" version="1.1" creator="VisuGPX - https://www.visugpx.com">
  <metadata>
    <name>Pont du casse</name>
    <desc><![CDATA[Petit circuit sympa a pont du casse]]></desc>
  </metadata>
  <trk>
    <name><![CDATA[21-JUIL-12 10:21:01]]></name>
    <trkseg>
      <trkpt lat="44.23214" lon="0.68217">
        <ele>60.7</ele>
        <time>2012-07-21T06:47:22Z</time>
      </trkpt>
      <trkpt lat="44.23214" lon="0.68215">
        <ele>64.07</ele>
        <time>2012-07-21T06:47:36Z</time>
      </trkpt>
      <trkpt lat="44.23213" lon="0.68217">
        <ele>67.43</ele>
        <time>2012-07-21T06:47:51Z</time>
      </trkpt>
      <trkpt lat="44.23213" lon="0.68217">
        <ele>63.58</ele>
        <time>2012-07-21T06:48:00Z</time>
      </trkpt>
      <trkpt lat="44.23213" lon="0.68218">
        <ele>67.91</ele>
        <time>2012-07-21T06:48:01Z</time>
      </trkpt>
      <trkpt lat="44.23213" lon="0.6822">
        <ele>67.91</ele>
        <time>2012-07-21T06:48:27Z</time>
      </trkpt>
      <trkpt lat="44.23207" lon="0.68228">
        <ele>67.91</ele>
        <time>2012-07-21T06:48:39Z</time>
      </trkpt>
      <trkpt lat="44.23206" lon="0.68229">
        <ele>67.91</ele>
        <time>2012-07-21T06:48:41Z</time>
      </trkpt>
      <trkpt lat="44.23205" lon="0.68242">
        <ele>67.91</ele>
        <time>2012-07-21T06:48:45Z</time>
      </trkpt>
      <trkpt lat="44.23223" lon="0.68319">
        <ele>68.39</ele>
        <time>2012-07-21T06:49:01Z</time>
      </trkpt>
      <trkpt lat="44.23244" lon="0.68376">
        <ele>67.91</ele>
        <time>2012-07-21T06:49:13Z</time>
      </trkpt>
      <trkpt lat="44.23261" lon="0.68415">
        <ele>67.43</ele>
        <time>2012-07-21T06:49:20Z</time>
      </trkpt>
      <trkpt lat="44.23263" lon="0.6842">
        <ele>66.95</ele>
        <time>2012-07-21T06:49:21Z</time>
      </trkpt>
      <trkpt lat="44.23265" lon="0.68426">
        <ele>66.95</ele>
        <time>2012-07-21T06:49:22Z</time>
      </trkpt>
      <trkpt lat="44.23289" lon="0.68479">
        <ele>66.95</ele>
        <time>2012-07-21T06:49:32Z</time>
      </trkpt>
      <trkpt lat="44.23312" lon="0.6856">
        <ele>67.91</ele>
        <time>2012-07-21T06:49:47Z</time>
      </trkpt>
      <trkpt lat="44.23313" lon="0.68565">
        <ele>67.91</ele>
        <time>2012-07-21T06:49:48Z</time>
      </trkpt>
      <trkpt lat="44.23316" lon="0.68631">
        <ele>69.35</ele>
        <time>2012-07-21T06:50:02Z</time>
      </trkpt>
      <trkpt lat="44.23319" lon="0.6869">
        <ele>69.83</ele>
        <time>2012-07-21T06:50:14Z</time>
      </trkpt>
      <trkpt lat="44.23325" lon="0.68769">
        <ele>69.83</ele>
        <time>2012-07-21T06:50:29Z</time>
      </trkpt>
      <trkpt lat="44.2333" lon="0.68819">
        <ele>70.79</ele>
        <time>2012-07-21T06:50:40Z</time>
      </trkpt>
      <trkpt lat="44.23347" lon="0.68878">
        <ele>72.24</ele>
        <time>2012-07-21T06:50:53Z</time>
      </trkpt>
      <trkpt lat="44.23357" lon="0.68928">
        <ele>72.24</ele>
        <time>2012-07-21T06:51:04Z</time>
      </trkpt>
      <trkpt lat="44.23372" lon="0.68998">
        <ele>70.79</ele>
        <time>2012-07-21T06:51:18Z</time>
      </trkpt>
      <trkpt lat="44.23382" lon="0.6906">
        <ele>70.31</ele>
        <time>2012-07-21T06:51:29Z</time>
      </trkpt>
      <trkpt lat="44.23383" lon="0.69065">
        <ele>70.31</ele>
        <time>2012-07-21T06:51:30Z</time>
      </trkpt>
      <trkpt lat="44.23384" lon="0.69071">
        <ele>70.31</ele>
        <time>2012-07-21T06:51:31Z</time>
      </trkpt>
      <trkpt lat="44.23384" lon="0.69136">
        <ele>71.27</ele>
        <time>2012-07-21T06:51:45Z</time>
      </trkpt>
      <trkpt lat="44.23377" lon="0.69208">
        <ele>71.76</ele>
        <time>2012-07-21T06:52:00Z</time>
      </trkpt>
      <trkpt lat="44.23378" lon="0.69257">
        <ele>71.76</ele>
        <time>2012-07-21T06:52:11Z</time>
      </trkpt>
      <trkpt lat="44.23381" lon="0.69304">
        <ele>72.72</ele>
        <time>2012-07-21T06:52:22Z</time>
      </trkpt>
      <trkpt lat="44.23389" lon="0.69364">
        <ele>73.2</ele>
        <time>2012-07-21T06:52:35Z</time>
      </trkpt>
      <trkpt lat="44.2342" lon="0.69447">
        <ele>73.2</ele>
        <time>2012-07-21T06:52:55Z</time>
      </trkpt>
      <trkpt lat="44.23451" lon="0.69501">
        <ele>73.2</ele>
        <time>2012-07-21T06:53:09Z</time>
      </trkpt>
      <trkpt lat="44.2346" lon="0.69556">
        <ele>72.72</ele>
        <time>2012-07-21T06:53:20Z</time>
      </trkpt>
      <trkpt lat="44.23463" lon="0.69631">
        <ele>73.2</ele>
        <time>2012-07-21T06:53:35Z</time>
      </trkpt>
      <trkpt lat="44.23464" lon="0.69635">
        <ele>73.2</ele>
        <time>2012-07-21T06:53:36Z</time>
      </trkpt>
      <trkpt lat="44.23467" lon="0.69638">
        <ele>73.2</ele>
        <time>2012-07-21T06:53:37Z</time>
      </trkpt>
      <trkpt lat="44.2347" lon="0.6964">
        <ele>73.2</ele>
        <time>2012-07-21T06:53:38Z</time>
      </trkpt>
      <trkpt lat="44.23473" lon="0.69642">
        <ele>72.72</ele>
        <time>2012-07-21T06:53:39Z</time>
      </trkpt>
      <trkpt lat="44.23476" lon="0.69643">
        <ele>73.2</ele>
        <time>2012-07-21T06:53:40Z</time>
      </trkpt>
      <trkpt lat="44.23479" lon="0.69643">
        <ele>73.2</ele>
        <time>2012-07-21T06:53:41Z</time>
      </trkpt>
      <trkpt lat="44.23483" lon="0.69644">
        <ele>72.24</ele>
        <time>2012-07-21T06:53:42Z</time>
      </trkpt>
      <trkpt lat="44.23486" lon="0.69645">
        <ele>72.72</ele>
        <time>2012-07-21T06:53:43Z</time>
      </trkpt>
      <trkpt lat="44.23492" lon="0.6965">
        <ele>73.2</ele>
        <time>2012-07-21T06:53:45Z</time>
      </trkpt>
      <trkpt lat="44.23494" lon="0.69654">
        <ele>73.2</ele>
        <time>2012-07-21T06:53:46Z</time>
      </trkpt>
      <trkpt lat="44.2352" lon="0.6972">
        <ele>75.12</ele>
        <time>2012-07-21T06:54:03Z</time>
      </trkpt>
      <trkpt lat="44.23532" lon="0.69753">
        <ele>78.48</ele>
        <time>2012-07-21T06:54:15Z</time>
      </trkpt>
      <trkpt lat="44.23542" lon="0.69788">
        <ele>80.89</ele>
        <time>2012-07-21T06:54:29Z</time>
      </trkpt>
      <trkpt lat="44.2355" lon="0.69825">
        <ele>83.77</ele>
        <time>2012-07-21T06:54:43Z</time>
      </trkpt>
      <trkpt lat="44.23554" lon="0.6987">
        <ele>86.66</ele>
        <time>2012-07-21T06:54:59Z</time>
      </trkpt>
      <trkpt lat="44.23552" lon="0.69916">
        <ele>89.54</ele>
        <time>2012-07-21T06:55:16Z</time>
      </trkpt>
      <trkpt lat="44.23551" lon="0.69951">
        <ele>92.42</ele>
        <time>2012-07-21T06:55:31Z</time>
      </trkpt>
      <trkpt lat="44.2355" lon="0.69986">
        <ele>94.83</ele>
        <time>2012-07-21T06:55:46Z</time>
      </trkpt>
      <trkpt lat="44.2355" lon="0.69999">
        <ele>95.79</ele>
        <time>2012-07-21T06:55:52Z</time>
      </trkpt>
      <trkpt lat="44.23576" lon="0.70024">
        <ele>95.79</ele>
        <time>2012-07-21T06:56:04Z</time>
      </trkpt>
      <trkpt lat="44.23585" lon="0.70034">
        <ele>95.31</ele>
        <time>2012-07-21T06:56:07Z</time>
      </trkpt>
      <trkpt lat="44.23589" lon="0.70037">
        <ele>95.31</ele>
        <time>2012-07-21T06:56:08Z</time>
      </trkpt>
      <trkpt lat="44.23596" lon="0.70045">
        <ele>94.83</ele>
        <time>2012-07-21T06:56:10Z</time>
      </trkpt>
      <trkpt lat="44.23623" lon="0.7008">
        <ele>91.46</ele>
        <time>2012-07-21T06:56:16Z</time>
      </trkpt>
      <trkpt lat="44.23647" lon="0.70106">
        <ele>87.14</ele>
        <time>2012-07-21T06:56:20Z</time>
      </trkpt>
      <trkpt lat="44.23653" lon="0.70112">
        <ele>85.69</ele>
        <time>2012-07-21T06:56:21Z</time>
      </trkpt>
      <trkpt lat="44.23672" lon="0.7014">
        <ele>82.81</ele>
        <time>2012-07-21T06:56:25Z</time>
      </trkpt>
      <trkpt lat="44.23684" lon="0.70162">
        <ele>85.69</ele>
        <time>2012-07-21T06:56:30Z</time>
      </trkpt>
      <trkpt lat="44.23687" lon="0.70168">
        <ele>87.14</ele>
        <time>2012-07-21T06:56:33Z</time>
      </trkpt>
      <trkpt lat="44.23689" lon="0.70171">
        <ele>87.14</ele>
        <time>2012-07-21T06:56:35Z</time>
      </trkpt>
      <trkpt lat="44.23711" lon="0.7019">
        <ele>86.66</ele>
        <time>2012-07-21T06:56:46Z</time>
      </trkpt>
      <trkpt lat="44.23714" lon="0.70194">
        <ele>86.18</ele>
        <time>2012-07-21T06:56:47Z</time>
      </trkpt>
      <trkpt lat="44.23736" lon="0.7024">
        <ele>85.69</ele>
        <time>2012-07-21T06:56:56Z</time>
      </trkpt>
      <trkpt lat="44.23745" lon="0.70246">
        <ele>84.73</ele>
        <time>2012-07-21T06:56:58Z</time>
      </trkpt>
      <trkpt lat="44.23762" lon="0.7024">
        <ele>80.41</ele>
        <time>2012-07-21T06:57:02Z</time>
      </trkpt>
      <trkpt lat="44.23765" lon="0.70238">
        <ele>79.93</ele>
        <time>2012-07-21T06:57:03Z</time>
      </trkpt>
      <trkpt lat="44.23782" lon="0.70264">
        <ele>78.48</ele>
        <time>2012-07-21T06:57:11Z</time>
      </trkpt>
      <trkpt lat="44.2379" lon="0.70276">
        <ele>78.48</ele>
        <time>2012-07-21T06:57:15Z</time>
      </trkpt>
      <trkpt lat="44.23796" lon="0.70282">
        <ele>78.97</ele>
        <time>2012-07-21T06:57:17Z</time>
      </trkpt>
      <trkpt lat="44.23821" lon="0.70269">
        <ele>78</ele>
        <time>2012-07-21T06:57:25Z</time>
      </trkpt>
      <trkpt lat="44.23839" lon="0.70268">
        <ele>77.52</ele>
        <time>2012-07-21T06:57:29Z</time>
      </trkpt>
      <trkpt lat="44.23884" lon="0.703">
        <ele>77.52</ele>
        <time>2012-07-21T06:57:39Z</time>
      </trkpt>
      <trkpt lat="44.23927" lon="0.70339">
        <ele>77.52</ele>
        <time>2012-07-21T06:57:51Z</time>
      </trkpt>
      <trkpt lat="44.23948" lon="0.70367">
        <ele>78.48</ele>
        <time>2012-07-21T06:58:00Z</time>
      </trkpt>
      <trkpt lat="44.23979" lon="0.70411">
        <ele>78</ele>
        <time>2012-07-21T06:58:12Z</time>
      </trkpt>
      <trkpt lat="44.24001" lon="0.70441">
        <ele>77.52</ele>
        <time>2012-07-21T06:58:19Z</time>
      </trkpt>
      <trkpt lat="44.24045" lon="0.70502">
        <ele>78</ele>
        <time>2012-07-21T06:58:31Z</time>
      </trkpt>
      <trkpt lat="44.24055" lon="0.70518">
        <ele>77.04</ele>
        <time>2012-07-21T06:58:34Z</time>
      </trkpt>
      <trkpt lat="44.24081" lon="0.70596">
        <ele>80.41</ele>
        <time>2012-07-21T06:58:49Z</time>
      </trkpt>
      <trkpt lat="44.24087" lon="0.70646">
        <ele>80.41</ele>
        <time>2012-07-21T06:59:00Z</time>
      </trkpt>
      <trkpt lat="44.24085" lon="0.70651">
        <ele>80.41</ele>
        <time>2012-07-21T06:59:01Z</time>
      </trkpt>
      <trkpt lat="44.24084" lon="0.70656">
        <ele>80.41</ele>
        <time>2012-07-21T06:59:02Z</time>
      </trkpt>
      <trkpt lat="44.24082" lon="0.7066">
        <ele>80.41</ele>
        <time>2012-07-21T06:59:03Z</time>
      </trkpt>
      <trkpt lat="44.2408" lon="0.70665">
        <ele>79.93</ele>
        <time>2012-07-21T06:59:04Z</time>
      </trkpt>
      <trkpt lat="44.24079" lon="0.70669">
        <ele>80.41</ele>
        <time>2012-07-21T06:59:05Z</time>
      </trkpt>
      <trkpt lat="44.24077" lon="0.70673">
        <ele>80.41</ele>
        <time>2012-07-21T06:59:06Z</time>
      </trkpt>
      <trkpt lat="44.24075" lon="0.70677">
        <ele>80.41</ele>
        <time>2012-07-21T06:59:07Z</time>
      </trkpt>
      <trkpt lat="44.24073" lon="0.70681">
        <ele>80.89</ele>
        <time>2012-07-21T06:59:08Z</time>
      </trkpt>
      <trkpt lat="44.24041" lon="0.70742">
        <ele>82.33</ele>
        <time>2012-07-21T06:59:23Z</time>
      </trkpt>
      <trkpt lat="44.24011" lon="0.70791">
        <ele>83.77</ele>
        <time>2012-07-21T06:59:38Z</time>
      </trkpt>
      <trkpt lat="44.2397" lon="0.70842">
        <ele>84.73</ele>
        <time>2012-07-21T06:59:54Z</time>
      </trkpt>
      <trkpt lat="44.23928" lon="0.7089">
        <ele>87.14</ele>
        <time>2012-07-21T07:00:11Z</time>
      </trkpt>
      <trkpt lat="44.23888" lon="0.70939">
        <ele>88.58</ele>
        <time>2012-07-21T07:00:29Z</time>
      </trkpt>
      <trkpt lat="44.23848" lon="0.70986">
        <ele>90.5</ele>
        <time>2012-07-21T07:00:46Z</time>
      </trkpt>
      <trkpt lat="44.23815" lon="0.71029">
        <ele>91.94</ele>
        <time>2012-07-21T07:01:01Z</time>
      </trkpt>
      <trkpt lat="44.23769" lon="0.71056">
        <ele>94.35</ele>
        <time>2012-07-21T07:01:18Z</time>
      </trkpt>
      <trkpt lat="44.23735" lon="0.71074">
        <ele>97.71</ele>
        <time>2012-07-21T07:01:33Z</time>
      </trkpt>
      <trkpt lat="44.23702" lon="0.71092">
        <ele>99.63</ele>
        <time>2012-07-21T07:01:48Z</time>
      </trkpt>
      <trkpt lat="44.23669" lon="0.71115">
        <ele>101.08</ele>
        <time>2012-07-21T07:02:03Z</time>
      </trkpt>
      <trkpt lat="44.23629" lon="0.71144">
        <ele>103</ele>
        <time>2012-07-21T07:02:20Z</time>
      </trkpt>
      <trkpt lat="44.23605" lon="0.71173">
        <ele>105.4</ele>
        <time>2012-07-21T07:02:33Z</time>
      </trkpt>
      <trkpt lat="44.23586" lon="0.71195">
        <ele>106.84</ele>
        <time>2012-07-21T07:02:45Z</time>
      </trkpt>
      <trkpt lat="44.23555" lon="0.71226">
        <ele>106.84</ele>
        <time>2012-07-21T07:03:00Z</time>
      </trkpt>
      <trkpt lat="44.2354" lon="0.71246">
        <ele>108.29</ele>
        <time>2012-07-21T07:03:10Z</time>
      </trkpt>
      <trkpt lat="44.23532" lon="0.71256">
        <ele>109.73</ele>
        <time>2012-07-21T07:03:17Z</time>
      </trkpt>
      <trkpt lat="44.23525" lon="0.7126">
        <ele>110.21</ele>
        <time>2012-07-21T07:03:21Z</time>
      </trkpt>
      <trkpt lat="44.23512" lon="0.71269">
        <ele>111.17</ele>
        <time>2012-07-21T07:03:29Z</time>
      </trkpt>
      <trkpt lat="44.23488" lon="0.71282">
        <ele>113.09</ele>
        <time>2012-07-21T07:03:43Z</time>
      </trkpt>
      <trkpt lat="44.23468" lon="0.71294">
        <ele>114.05</ele>
        <time>2012-07-21T07:03:55Z</time>
      </trkpt>
      <trkpt lat="44.23463" lon="0.71299">
        <ele>114.53</ele>
        <time>2012-07-21T07:03:58Z</time>
      </trkpt>
      <trkpt lat="44.23454" lon="0.71307">
        <ele>115.5</ele>
        <time>2012-07-21T07:04:04Z</time>
      </trkpt>
      <trkpt lat="44.23442" lon="0.7132">
        <ele>115.98</ele>
        <time>2012-07-21T07:04:11Z</time>
      </trkpt>
      <trkpt lat="44.23432" lon="0.7133">
        <ele>116.46</ele>
        <time>2012-07-21T07:04:16Z</time>
      </trkpt>
      <trkpt lat="44.23412" lon="0.71355">
        <ele>119.34</ele>
        <time>2012-07-21T07:04:28Z</time>
      </trkpt>
      <trkpt lat="44.23399" lon="0.71386">
        <ele>120.78</ele>
        <time>2012-07-21T07:04:39Z</time>
      </trkpt>
      <trkpt lat="44.23389" lon="0.71416">
        <ele>122.22</ele>
        <time>2012-07-21T07:04:51Z</time>
      </trkpt>
      <trkpt lat="44.23385" lon="0.7145">
        <ele>124.15</ele>
        <time>2012-07-21T07:05:03Z</time>
      </trkpt>
      <trkpt lat="44.23385" lon="0.71466">
        <ele>125.59</ele>
        <time>2012-07-21T07:05:09Z</time>
      </trkpt>
      <trkpt lat="44.23386" lon="0.71488">
        <ele>127.99</ele>
        <time>2012-07-21T07:05:20Z</time>
      </trkpt>
      <trkpt lat="44.23384" lon="0.71497">
        <ele>128.47</ele>
        <time>2012-07-21T07:05:24Z</time>
      </trkpt>
      <trkpt lat="44.23383" lon="0.7152">
        <ele>131.84</ele>
        <time>2012-07-21T07:05:33Z</time>
      </trkpt>
      <trkpt lat="44.23382" lon="0.71523">
        <ele>132.8</ele>
        <time>2012-07-21T07:05:35Z</time>
      </trkpt>
      <trkpt lat="44.2338" lon="0.71528">
        <ele>133.28</ele>
        <time>2012-07-21T07:05:46Z</time>
      </trkpt>
      <trkpt lat="44.23381" lon="0.71527">
        <ele>132.8</ele>
        <time>2012-07-21T07:06:03Z</time>
      </trkpt>
      <trkpt lat="44.23381" lon="0.71527">
        <ele>132.32</ele>
        <time>2012-07-21T07:06:21Z</time>
      </trkpt>
      <trkpt lat="44.23379" lon="0.71527">
        <ele>132.8</ele>
        <time>2012-07-21T07:06:49Z</time>
      </trkpt>
      <trkpt lat="44.23369" lon="0.71533">
        <ele>135.68</ele>
        <time>2012-07-21T07:06:57Z</time>
      </trkpt>
      <trkpt lat="44.23366" lon="0.71534">
        <ele>136.16</ele>
        <time>2012-07-21T07:06:59Z</time>
      </trkpt>
      <trkpt lat="44.23357" lon="0.71544">
        <ele>138.57</ele>
        <time>2012-07-21T07:07:07Z</time>
      </trkpt>
      <trkpt lat="44.23363" lon="0.71568">
        <ele>141.93</ele>
        <time>2012-07-21T07:07:20Z</time>
      </trkpt>
      <trkpt lat="44.23368" lon="0.71596">
        <ele>144.82</ele>
        <time>2012-07-21T07:07:34Z</time>
      </trkpt>
      <trkpt lat="44.23365" lon="0.71617">
        <ele>147.7</ele>
        <time>2012-07-21T07:07:46Z</time>
      </trkpt>
      <trkpt lat="44.23364" lon="0.71626">
        <ele>148.66</ele>
        <time>2012-07-21T07:07:51Z</time>
      </trkpt>
      <trkpt lat="44.23369" lon="0.7164">
        <ele>150.58</ele>
        <time>2012-07-21T07:07:59Z</time>
      </trkpt>
      <trkpt lat="44.2338" lon="0.71655">
        <ele>152.03</ele>
        <time>2012-07-21T07:08:10Z</time>
      </trkpt>
      <trkpt lat="44.23381" lon="0.71657">
        <ele>152.03</ele>
        <time>2012-07-21T07:08:24Z</time>
      </trkpt>
      <trkpt lat="44.23383" lon="0.71657">
        <ele>152.03</ele>
        <time>2012-07-21T07:08:37Z</time>
      </trkpt>
      <trkpt lat="44.23387" lon="0.71661">
        <ele>152.51</ele>
        <time>2012-07-21T07:08:55Z</time>
      </trkpt>
      <trkpt lat="44.23388" lon="0.71664">
        <ele>152.99</ele>
        <time>2012-07-21T07:09:03Z</time>
      </trkpt>
      <trkpt lat="44.23388" lon="0.71664">
        <ele>152.99</ele>
        <time>2012-07-21T07:09:09Z</time>
      </trkpt>
      <trkpt lat="44.23373" lon="0.71661">
        <ele>155.39</ele>
        <time>2012-07-21T07:09:21Z</time>
      </trkpt>
      <trkpt lat="44.23359" lon="0.71658">
        <ele>157.79</ele>
        <time>2012-07-21T07:09:31Z</time>
      </trkpt>
      <trkpt lat="44.23358" lon="0.71663">
        <ele>157.79</ele>
        <time>2012-07-21T07:09:35Z</time>
      </trkpt>
      <trkpt lat="44.23363" lon="0.71668">
        <ele>157.79</ele>
        <time>2012-07-21T07:09:39Z</time>
      </trkpt>
      <trkpt lat="44.23382" lon="0.71681">
        <ele>158.27</ele>
        <time>2012-07-21T07:09:53Z</time>
      </trkpt>
      <trkpt lat="44.23423" lon="0.7169">
        <ele>159.72</ele>
        <time>2012-07-21T07:10:09Z</time>
      </trkpt>
      <trkpt lat="44.23463" lon="0.71694">
        <ele>161.16</ele>
        <time>2012-07-21T07:10:24Z</time>
      </trkpt>
      <trkpt lat="44.2352" lon="0.71701">
        <ele>161.64</ele>
        <time>2012-07-21T07:10:42Z</time>
      </trkpt>
      <trkpt lat="44.23592" lon="0.71707">
        <ele>162.6</ele>
        <time>2012-07-21T07:11:03Z</time>
      </trkpt>
      <trkpt lat="44.23649" lon="0.71711">
        <ele>161.16</ele>
        <time>2012-07-21T07:11:17Z</time>
      </trkpt>
      <trkpt lat="44.23654" lon="0.71709">
        <ele>161.64</ele>
        <time>2012-07-21T07:11:18Z</time>
      </trkpt>
      <trkpt lat="44.23659" lon="0.71706">
        <ele>160.68</ele>
        <time>2012-07-21T07:11:19Z</time>
      </trkpt>
      <trkpt lat="44.2368" lon="0.71693">
        <ele>160.2</ele>
        <time>2012-07-21T07:11:25Z</time>
      </trkpt>
      <trkpt lat="44.23681" lon="0.71692">
        <ele>160.68</ele>
        <time>2012-07-21T07:11:26Z</time>
      </trkpt>
      <trkpt lat="44.23681" lon="0.7169">
        <ele>160.2</ele>
        <time>2012-07-21T07:11:27Z</time>
      </trkpt>
      <trkpt lat="44.2368" lon="0.71689">
        <ele>160.68</ele>
        <time>2012-07-21T07:11:28Z</time>
      </trkpt>
      <trkpt lat="44.23678" lon="0.71689">
        <ele>160.68</ele>
        <time>2012-07-21T07:11:29Z</time>
      </trkpt>
      <trkpt lat="44.23677" lon="0.7169">
        <ele>160.2</ele>
        <time>2012-07-21T07:11:30Z</time>
      </trkpt>
      <trkpt lat="44.23676" lon="0.71691">
        <ele>160.2</ele>
        <time>2012-07-21T07:11:31Z</time>
      </trkpt>
      <trkpt lat="44.23676" lon="0.71693">
        <ele>160.2</ele>
        <time>2012-07-21T07:11:32Z</time>
      </trkpt>
      <trkpt lat="44.23677" lon="0.71696">
        <ele>160.68</ele>
        <time>2012-07-21T07:11:33Z</time>
      </trkpt>
      <trkpt lat="44.23679" lon="0.71698">
        <ele>160.68</ele>
        <time>2012-07-21T07:11:34Z</time>
      </trkpt>
      <trkpt lat="44.23681" lon="0.717">
        <ele>160.68</ele>
        <time>2012-07-21T07:11:35Z</time>
      </trkpt>
      <trkpt lat="44.23682" lon="0.71701">
        <ele>160.68</ele>
        <time>2012-07-21T07:11:36Z</time>
      </trkpt>
      <trkpt lat="44.23684" lon="0.71702">
        <ele>161.16</ele>
        <time>2012-07-21T07:11:37Z</time>
      </trkpt>
      <trkpt lat="44.23685" lon="0.71704">
        <ele>161.64</ele>
        <time>2012-07-21T07:11:38Z</time>
      </trkpt>
      <trkpt lat="44.23686" lon="0.71706">
        <ele>161.64</ele>
        <time>2012-07-21T07:11:39Z</time>
      </trkpt>
      <trkpt lat="44.23687" lon="0.71708">
        <ele>162.12</ele>
        <time>2012-07-21T07:11:40Z</time>
      </trkpt>
      <trkpt lat="44.23688" lon="0.7171">
        <ele>162.12</ele>
        <time>2012-07-21T07:11:41Z</time>
      </trkpt>
      <trkpt lat="44.2369" lon="0.71712">
        <ele>162.12</ele>
        <time>2012-07-21T07:11:42Z</time>
      </trkpt>
      <trkpt lat="44.23691" lon="0.71715">
        <ele>162.6</ele>
        <time>2012-07-21T07:11:43Z</time>
      </trkpt>
      <trkpt lat="44.23709" lon="0.71749">
        <ele>164.04</ele>
        <time>2012-07-21T07:11:57Z</time>
      </trkpt>
      <trkpt lat="44.23728" lon="0.71785">
        <ele>167.41</ele>
        <time>2012-07-21T07:12:13Z</time>
      </trkpt>
      <trkpt lat="44.23749" lon="0.71813">
        <ele>170.29</ele>
        <time>2012-07-21T07:12:29Z</time>
      </trkpt>
      <trkpt lat="44.2377" lon="0.71842">
        <ele>173.66</ele>
        <time>2012-07-21T07:12:45Z</time>
      </trkpt>
      <trkpt lat="44.23788" lon="0.71869">
        <ele>177.02</ele>
        <time>2012-07-21T07:13:00Z</time>
      </trkpt>
      <trkpt lat="44.23803" lon="0.71892">
        <ele>180.38</ele>
        <time>2012-07-21T07:13:13Z</time>
      </trkpt>
      <trkpt lat="44.23827" lon="0.71921">
        <ele>183.27</ele>
        <time>2012-07-21T07:13:30Z</time>
      </trkpt>
      <trkpt lat="44.23854" lon="0.71948">
        <ele>184.23</ele>
        <time>2012-07-21T07:13:46Z</time>
      </trkpt>
      <trkpt lat="44.23879" lon="0.71958">
        <ele>183.75</ele>
        <time>2012-07-21T07:13:54Z</time>
      </trkpt>
      <trkpt lat="44.23894" lon="0.7196">
        <ele>182.31</ele>
        <time>2012-07-21T07:13:57Z</time>
      </trkpt>
      <trkpt lat="44.23899" lon="0.71962">
        <ele>182.31</ele>
        <time>2012-07-21T07:13:58Z</time>
      </trkpt>
      <trkpt lat="44.23912" lon="0.71969">
        <ele>182.31</ele>
        <time>2012-07-21T07:14:01Z</time>
      </trkpt>
      <trkpt lat="44.23942" lon="0.72001">
        <ele>183.27</ele>
        <time>2012-07-21T07:14:13Z</time>
      </trkpt>
      <trkpt lat="44.23976" lon="0.7204">
        <ele>180.87</ele>
        <time>2012-07-21T07:14:26Z</time>
      </trkpt>
      <trkpt lat="44.23976" lon="0.72043">
        <ele>181.35</ele>
        <time>2012-07-21T07:14:27Z</time>
      </trkpt>
      <trkpt lat="44.23975" lon="0.72046">
        <ele>181.35</ele>
        <time>2012-07-21T07:14:28Z</time>
      </trkpt>
      <trkpt lat="44.23973" lon="0.72049">
        <ele>181.35</ele>
        <time>2012-07-21T07:14:29Z</time>
      </trkpt>
      <trkpt lat="44.2397" lon="0.72052">
        <ele>181.35</ele>
        <time>2012-07-21T07:14:30Z</time>
      </trkpt>
      <trkpt lat="44.23968" lon="0.72056">
        <ele>180.87</ele>
        <time>2012-07-21T07:14:31Z</time>
      </trkpt>
      <trkpt lat="44.23966" lon="0.7206">
        <ele>180.87</ele>
        <time>2012-07-21T07:14:32Z</time>
      </trkpt>
      <trkpt lat="44.2394" lon="0.72093">
        <ele>180.87</ele>
        <time>2012-07-21T07:14:43Z</time>
      </trkpt>
      <trkpt lat="44.23905" lon="0.72142">
        <ele>181.35</ele>
        <time>2012-07-21T07:14:57Z</time>
      </trkpt>
      <trkpt lat="44.23885" lon="0.72187">
        <ele>180.87</ele>
        <time>2012-07-21T07:15:07Z</time>
      </trkpt>
      <trkpt lat="44.23855" lon="0.72228">
        <ele>178.94</ele>
        <time>2012-07-21T07:15:16Z</time>
      </trkpt>
      <trkpt lat="44.23851" lon="0.72233">
        <ele>178.46</ele>
        <time>2012-07-21T07:15:17Z</time>
      </trkpt>
      <trkpt lat="44.23848" lon="0.72237">
        <ele>178.46</ele>
        <time>2012-07-21T07:15:18Z</time>
      </trkpt>
      <trkpt lat="44.23845" lon="0.72242">
        <ele>178.46</ele>
        <time>2012-07-21T07:15:19Z</time>
      </trkpt>
      <trkpt lat="44.23842" lon="0.72247">
        <ele>178.94</ele>
        <time>2012-07-21T07:15:20Z</time>
      </trkpt>
      <trkpt lat="44.23822" lon="0.72272">
        <ele>180.87</ele>
        <time>2012-07-21T07:15:28Z</time>
      </trkpt>
      <trkpt lat="44.2382" lon="0.72275">
        <ele>181.35</ele>
        <time>2012-07-21T07:15:29Z</time>
      </trkpt>
      <trkpt lat="44.23804" lon="0.72305">
        <ele>182.31</ele>
        <time>2012-07-21T07:15:39Z</time>
      </trkpt>
      <trkpt lat="44.23787" lon="0.72356">
        <ele>182.31</ele>
        <time>2012-07-21T07:15:51Z</time>
      </trkpt>
      <trkpt lat="44.23772" lon="0.72428">
        <ele>182.31</ele>
        <time>2012-07-21T07:16:05Z</time>
      </trkpt>
      <trkpt lat="44.23763" lon="0.72474">
        <ele>182.31</ele>
        <time>2012-07-21T07:16:15Z</time>
      </trkpt>
      <trkpt lat="44.23747" lon="0.72529">
        <ele>183.75</ele>
        <time>2012-07-21T07:16:26Z</time>
      </trkpt>
      <trkpt lat="44.23736" lon="0.72573">
        <ele>184.23</ele>
        <time>2012-07-21T07:16:35Z</time>
      </trkpt>
      <trkpt lat="44.23733" lon="0.72579">
        <ele>184.71</ele>
        <time>2012-07-21T07:16:36Z</time>
      </trkpt>
      <trkpt lat="44.23707" lon="0.72608">
        <ele>187.11</ele>
        <time>2012-07-21T07:16:47Z</time>
      </trkpt>
      <trkpt lat="44.23706" lon="0.7261">
        <ele>187.11</ele>
        <time>2012-07-21T07:16:48Z</time>
      </trkpt>
      <trkpt lat="44.23705" lon="0.72612">
        <ele>187.11</ele>
        <time>2012-07-21T07:16:49Z</time>
      </trkpt>
      <trkpt lat="44.23705" lon="0.72614">
        <ele>187.11</ele>
        <time>2012-07-21T07:16:50Z</time>
      </trkpt>
      <trkpt lat="44.23702" lon="0.72625">
        <ele>186.63</ele>
        <time>2012-07-21T07:16:53Z</time>
      </trkpt>
      <trkpt lat="44.23699" lon="0.72629">
        <ele>186.15</ele>
        <time>2012-07-21T07:16:54Z</time>
      </trkpt>
      <trkpt lat="44.23696" lon="0.72632">
        <ele>185.67</ele>
        <time>2012-07-21T07:16:55Z</time>
      </trkpt>
      <trkpt lat="44.23671" lon="0.72659">
        <ele>181.83</ele>
        <time>2012-07-21T07:17:00Z</time>
      </trkpt>
      <trkpt lat="44.23651" lon="0.72681">
        <ele>178.46</ele>
        <time>2012-07-21T07:17:03Z</time>
      </trkpt>
      <trkpt lat="44.23632" lon="0.727">
        <ele>175.58</ele>
        <time>2012-07-21T07:17:06Z</time>
      </trkpt>
      <trkpt lat="44.23622" lon="0.72712">
        <ele>173.17</ele>
        <time>2012-07-21T07:17:08Z</time>
      </trkpt>
      <trkpt lat="44.23617" lon="0.7272">
        <ele>172.21</ele>
        <time>2012-07-21T07:17:09Z</time>
      </trkpt>
      <trkpt lat="44.23613" lon="0.7273">
        <ele>171.25</ele>
        <time>2012-07-21T07:17:10Z</time>
      </trkpt>
      <trkpt lat="44.2361" lon="0.72741">
        <ele>171.25</ele>
        <time>2012-07-21T07:17:11Z</time>
      </trkpt>
      <trkpt lat="44.23599" lon="0.72772">
        <ele>169.81</ele>
        <time>2012-07-21T07:17:14Z</time>
      </trkpt>
      <trkpt lat="44.23569" lon="0.72856">
        <ele>168.37</ele>
        <time>2012-07-21T07:17:23Z</time>
      </trkpt>
      <trkpt lat="44.23565" lon="0.7286">
        <ele>167.89</ele>
        <time>2012-07-21T07:17:24Z</time>
      </trkpt>
      <trkpt lat="44.23559" lon="0.72863">
        <ele>167.89</ele>
        <time>2012-07-21T07:17:25Z</time>
      </trkpt>
      <trkpt lat="44.23477" lon="0.72889">
        <ele>165.48</ele>
        <time>2012-07-21T07:17:40Z</time>
      </trkpt>
      <trkpt lat="44.23396" lon="0.72921">
        <ele>162.12</ele>
        <time>2012-07-21T07:17:53Z</time>
      </trkpt>
      <trkpt lat="44.23389" lon="0.72923">
        <ele>162.12</ele>
        <time>2012-07-21T07:17:54Z</time>
      </trkpt>
      <trkpt lat="44.23371" lon="0.7293">
        <ele>160.68</ele>
        <time>2012-07-21T07:17:57Z</time>
      </trkpt>
      <trkpt lat="44.23354" lon="0.72937">
        <ele>159.72</ele>
        <time>2012-07-21T07:18:01Z</time>
      </trkpt>
      <trkpt lat="44.2335" lon="0.72937">
        <ele>159.72</ele>
        <time>2012-07-21T07:18:02Z</time>
      </trkpt>
      <trkpt lat="44.23347" lon="0.72938">
        <ele>159.72</ele>
        <time>2012-07-21T07:18:03Z</time>
      </trkpt>
      <trkpt lat="44.23342" lon="0.72938">
        <ele>159.24</ele>
        <time>2012-07-21T07:18:04Z</time>
      </trkpt>
      <trkpt lat="44.23338" lon="0.72938">
        <ele>159.24</ele>
        <time>2012-07-21T07:18:05Z</time>
      </trkpt>
      <trkpt lat="44.23319" lon="0.72937">
        <ele>156.35</ele>
        <time>2012-07-21T07:18:09Z</time>
      </trkpt>
      <trkpt lat="44.23314" lon="0.72936">
        <ele>155.39</ele>
        <time>2012-07-21T07:18:10Z</time>
      </trkpt>
      <trkpt lat="44.23309" lon="0.72934">
        <ele>154.91</ele>
        <time>2012-07-21T07:18:11Z</time>
      </trkpt>
      <trkpt lat="44.23305" lon="0.72931">
        <ele>154.91</ele>
        <time>2012-07-21T07:18:12Z</time>
      </trkpt>
      <trkpt lat="44.23302" lon="0.7293">
        <ele>154.43</ele>
        <time>2012-07-21T07:18:13Z</time>
      </trkpt>
      <trkpt lat="44.23299" lon="0.7293">
        <ele>153.95</ele>
        <time>2012-07-21T07:18:14Z</time>
      </trkpt>
      <trkpt lat="44.23296" lon="0.72931">
        <ele>152.99</ele>
        <time>2012-07-21T07:18:15Z</time>
      </trkpt>
      <trkpt lat="44.23295" lon="0.72933">
        <ele>152.99</ele>
        <time>2012-07-21T07:18:16Z</time>
      </trkpt>
      <trkpt lat="44.23294" lon="0.72937">
        <ele>152.99</ele>
        <time>2012-07-21T07:18:17Z</time>
      </trkpt>
      <trkpt lat="44.23294" lon="0.72941">
        <ele>152.51</ele>
        <time>2012-07-21T07:18:18Z</time>
      </trkpt>
      <trkpt lat="44.23295" lon="0.72945">
        <ele>152.51</ele>
        <time>2012-07-21T07:18:19Z</time>
      </trkpt>
      <trkpt lat="44.23295" lon="0.7295">
        <ele>152.51</ele>
        <time>2012-07-21T07:18:20Z</time>
      </trkpt>
      <trkpt lat="44.23296" lon="0.7296">
        <ele>152.51</ele>
        <time>2012-07-21T07:18:22Z</time>
      </trkpt>
      <trkpt lat="44.23295" lon="0.72978">
        <ele>151.54</ele>
        <time>2012-07-21T07:18:25Z</time>
      </trkpt>
      <trkpt lat="44.23296" lon="0.72984">
        <ele>151.54</ele>
        <time>2012-07-21T07:18:26Z</time>
      </trkpt>
      <trkpt lat="44.23298" lon="0.72989">
        <ele>152.03</ele>
        <time>2012-07-21T07:18:27Z</time>
      </trkpt>
      <trkpt lat="44.23299" lon="0.72995">
        <ele>151.54</ele>
        <time>2012-07-21T07:18:28Z</time>
      </trkpt>
      <trkpt lat="44.233" lon="0.73">
        <ele>152.03</ele>
        <time>2012-07-21T07:18:29Z</time>
      </trkpt>
      <trkpt lat="44.23301" lon="0.73005">
        <ele>151.54</ele>
        <time>2012-07-21T07:18:30Z</time>
      </trkpt>
      <trkpt lat="44.23302" lon="0.73011">
        <ele>152.03</ele>
        <time>2012-07-21T07:18:31Z</time>
      </trkpt>
      <trkpt lat="44.23303" lon="0.73016">
        <ele>152.03</ele>
        <time>2012-07-21T07:18:32Z</time>
      </trkpt>
      <trkpt lat="44.23309" lon="0.73073">
        <ele>153.95</ele>
        <time>2012-07-21T07:18:43Z</time>
      </trkpt>
      <trkpt lat="44.23308" lon="0.73093">
        <ele>154.91</ele>
        <time>2012-07-21T07:18:51Z</time>
      </trkpt>
      <trkpt lat="44.23306" lon="0.73091">
        <ele>154.43</ele>
        <time>2012-07-21T07:18:59Z</time>
      </trkpt>
      <trkpt lat="44.23305" lon="0.73091">
        <ele>154.43</ele>
        <time>2012-07-21T07:19:16Z</time>
      </trkpt>
      <trkpt lat="44.23294" lon="0.73094">
        <ele>153.95</ele>
        <time>2012-07-21T07:19:22Z</time>
      </trkpt>
      <trkpt lat="44.23265" lon="0.73115">
        <ele>156.83</ele>
        <time>2012-07-21T07:19:35Z</time>
      </trkpt>
      <trkpt lat="44.2325" lon="0.73128">
        <ele>160.68</ele>
        <time>2012-07-21T07:19:45Z</time>
      </trkpt>
      <trkpt lat="44.23241" lon="0.73136">
        <ele>162.12</ele>
        <time>2012-07-21T07:19:51Z</time>
      </trkpt>
      <trkpt lat="44.23232" lon="0.73134">
        <ele>164.04</ele>
        <time>2012-07-21T07:19:57Z</time>
      </trkpt>
      <trkpt lat="44.23204" lon="0.73126">
        <ele>166.45</ele>
        <time>2012-07-21T07:20:13Z</time>
      </trkpt>
      <trkpt lat="44.2317" lon="0.73124">
        <ele>168.37</ele>
        <time>2012-07-21T07:20:30Z</time>
      </trkpt>
      <trkpt lat="44.23152" lon="0.73117">
        <ele>167.41</ele>
        <time>2012-07-21T07:20:36Z</time>
      </trkpt>
      <trkpt lat="44.23094" lon="0.73084">
        <ele>164.52</ele>
        <time>2012-07-21T07:20:47Z</time>
      </trkpt>
      <trkpt lat="44.23044" lon="0.73052">
        <ele>165.96</ele>
        <time>2012-07-21T07:20:59Z</time>
      </trkpt>
      <trkpt lat="44.23043" lon="0.73053">
        <ele>165.96</ele>
        <time>2012-07-21T07:21:01Z</time>
      </trkpt>
      <trkpt lat="44.23043" lon="0.73055">
        <ele>165.96</ele>
        <time>2012-07-21T07:21:02Z</time>
      </trkpt>
      <trkpt lat="44.23043" lon="0.7306">
        <ele>165</ele>
        <time>2012-07-21T07:21:04Z</time>
      </trkpt>
      <trkpt lat="44.23042" lon="0.73064">
        <ele>165</ele>
        <time>2012-07-21T07:21:05Z</time>
      </trkpt>
      <trkpt lat="44.23039" lon="0.73076">
        <ele>163.56</ele>
        <time>2012-07-21T07:21:07Z</time>
      </trkpt>
      <trkpt lat="44.23038" lon="0.73082">
        <ele>163.56</ele>
        <time>2012-07-21T07:21:08Z</time>
      </trkpt>
      <trkpt lat="44.23022" lon="0.73152">
        <ele>163.56</ele>
        <time>2012-07-21T07:21:22Z</time>
      </trkpt>
      <trkpt lat="44.23021" lon="0.73158">
        <ele>163.08</ele>
        <time>2012-07-21T07:21:32Z</time>
      </trkpt>
      <trkpt lat="44.23022" lon="0.73157">
        <ele>163.08</ele>
        <time>2012-07-21T07:22:03Z</time>
      </trkpt>
      <trkpt lat="44.23025" lon="0.73157">
        <ele>163.08</ele>
        <time>2012-07-21T07:22:34Z</time>
      </trkpt>
      <trkpt lat="44.23024" lon="0.73158">
        <ele>163.08</ele>
        <time>2012-07-21T07:23:12Z</time>
      </trkpt>
      <trkpt lat="44.23023" lon="0.73162">
        <ele>163.56</ele>
        <time>2012-07-21T07:23:37Z</time>
      </trkpt>
      <trkpt lat="44.23014" lon="0.73203">
        <ele>166.45</ele>
        <time>2012-07-21T07:23:50Z</time>
      </trkpt>
      <trkpt lat="44.23005" lon="0.73225">
        <ele>169.81</ele>
        <time>2012-07-21T07:23:59Z</time>
      </trkpt>
      <trkpt lat="44.23003" lon="0.73229">
        <ele>170.29</ele>
        <time>2012-07-21T07:24:01Z</time>
      </trkpt>
      <trkpt lat="44.22993" lon="0.73248">
        <ele>173.66</ele>
        <time>2012-07-21T07:24:10Z</time>
      </trkpt>
      <trkpt lat="44.22989" lon="0.73256">
        <ele>175.58</ele>
        <time>2012-07-21T07:24:14Z</time>
      </trkpt>
      <trkpt lat="44.22981" lon="0.73272">
        <ele>178.46</ele>
        <time>2012-07-21T07:24:23Z</time>
      </trkpt>
      <trkpt lat="44.22974" lon="0.73286">
        <ele>180.38</ele>
        <time>2012-07-21T07:24:31Z</time>
      </trkpt>
      <trkpt lat="44.22969" lon="0.73295">
        <ele>182.31</ele>
        <time>2012-07-21T07:24:37Z</time>
      </trkpt>
      <trkpt lat="44.22958" lon="0.73313">
        <ele>184.23</ele>
        <time>2012-07-21T07:24:49Z</time>
      </trkpt>
      <trkpt lat="44.22956" lon="0.73314">
        <ele>184.71</ele>
        <time>2012-07-21T07:24:51Z</time>
      </trkpt>
      <trkpt lat="44.22952" lon="0.73312">
        <ele>184.71</ele>
        <time>2012-07-21T07:24:55Z</time>
      </trkpt>
      <trkpt lat="44.2295" lon="0.73305">
        <ele>183.27</ele>
        <time>2012-07-21T07:24:58Z</time>
      </trkpt>
      <trkpt lat="44.22945" lon="0.73238">
        <ele>181.83</ele>
        <time>2012-07-21T07:25:11Z</time>
      </trkpt>
      <trkpt lat="44.22938" lon="0.73157">
        <ele>180.87</ele>
        <time>2012-07-21T07:25:25Z</time>
      </trkpt>
      <trkpt lat="44.22934" lon="0.73143">
        <ele>180.87</ele>
        <time>2012-07-21T07:25:30Z</time>
      </trkpt>
      <trkpt lat="44.22932" lon="0.73142">
        <ele>180.87</ele>
        <time>2012-07-21T07:25:31Z</time>
      </trkpt>
      <trkpt lat="44.2293" lon="0.73142">
        <ele>180.38</ele>
        <time>2012-07-21T07:25:32Z</time>
      </trkpt>
      <trkpt lat="44.22927" lon="0.73143">
        <ele>180.38</ele>
        <time>2012-07-21T07:25:33Z</time>
      </trkpt>
      <trkpt lat="44.22925" lon="0.73145">
        <ele>180.38</ele>
        <time>2012-07-21T07:25:34Z</time>
      </trkpt>
      <trkpt lat="44.22922" lon="0.73147">
        <ele>180.38</ele>
        <time>2012-07-21T07:25:35Z</time>
      </trkpt>
      <trkpt lat="44.22865" lon="0.73191">
        <ele>177.98</ele>
        <time>2012-07-21T07:25:50Z</time>
      </trkpt>
      <trkpt lat="44.2286" lon="0.73194">
        <ele>177.5</ele>
        <time>2012-07-21T07:25:51Z</time>
      </trkpt>
      <trkpt lat="44.22855" lon="0.73197">
        <ele>177.5</ele>
        <time>2012-07-21T07:25:52Z</time>
      </trkpt>
      <trkpt lat="44.22845" lon="0.73201">
        <ele>177.98</ele>
        <time>2012-07-21T07:25:54Z</time>
      </trkpt>
      <trkpt lat="44.22835" lon="0.73204">
        <ele>177.5</ele>
        <time>2012-07-21T07:25:56Z</time>
      </trkpt>
      <trkpt lat="44.2283" lon="0.73203">
        <ele>177.5</ele>
        <time>2012-07-21T07:25:57Z</time>
      </trkpt>
      <trkpt lat="44.22824" lon="0.73202">
        <ele>177.5</ele>
        <time>2012-07-21T07:25:58Z</time>
      </trkpt>
      <trkpt lat="44.22819" lon="0.732">
        <ele>177.02</ele>
        <time>2012-07-21T07:25:59Z</time>
      </trkpt>
      <trkpt lat="44.22814" lon="0.73196">
        <ele>177.02</ele>
        <time>2012-07-21T07:26:00Z</time>
      </trkpt>
      <trkpt lat="44.22809" lon="0.73193">
        <ele>177.02</ele>
        <time>2012-07-21T07:26:01Z</time>
      </trkpt>
      <trkpt lat="44.2277" lon="0.73166">
        <ele>176.54</ele>
        <time>2012-07-21T07:26:09Z</time>
      </trkpt>
      <trkpt lat="44.22754" lon="0.73148">
        <ele>175.58</ele>
        <time>2012-07-21T07:26:13Z</time>
      </trkpt>
      <trkpt lat="44.2274" lon="0.73125">
        <ele>175.58</ele>
        <time>2012-07-21T07:26:17Z</time>
      </trkpt>
      <trkpt lat="44.22737" lon="0.73119">
        <ele>175.58</ele>
        <time>2012-07-21T07:26:18Z</time>
      </trkpt>
      <trkpt lat="44.22734" lon="0.73113">
        <ele>175.58</ele>
        <time>2012-07-21T07:26:19Z</time>
      </trkpt>
      <trkpt lat="44.22691" lon="0.73062">
        <ele>175.1</ele>
        <time>2012-07-21T07:26:29Z</time>
      </trkpt>
      <trkpt lat="44.22623" lon="0.73017">
        <ele>175.1</ele>
        <time>2012-07-21T07:26:44Z</time>
      </trkpt>
      <trkpt lat="44.22618" lon="0.73014">
        <ele>174.62</ele>
        <time>2012-07-21T07:26:45Z</time>
      </trkpt>
      <trkpt lat="44.22612" lon="0.73012">
        <ele>174.14</ele>
        <time>2012-07-21T07:26:46Z</time>
      </trkpt>
      <trkpt lat="44.22606" lon="0.7301">
        <ele>173.17</ele>
        <time>2012-07-21T07:26:47Z</time>
      </trkpt>
      <trkpt lat="44.22599" lon="0.7301">
        <ele>173.17</ele>
        <time>2012-07-21T07:26:48Z</time>
      </trkpt>
      <trkpt lat="44.22592" lon="0.73011">
        <ele>172.69</ele>
        <time>2012-07-21T07:26:49Z</time>
      </trkpt>
      <trkpt lat="44.22585" lon="0.73013">
        <ele>171.73</ele>
        <time>2012-07-21T07:26:50Z</time>
      </trkpt>
      <trkpt lat="44.22578" lon="0.73015">
        <ele>171.25</ele>
        <time>2012-07-21T07:26:51Z</time>
      </trkpt>
      <trkpt lat="44.22571" lon="0.73019">
        <ele>171.25</ele>
        <time>2012-07-21T07:26:52Z</time>
      </trkpt>
      <trkpt lat="44.22534" lon="0.73037">
        <ele>171.25</ele>
        <time>2012-07-21T07:27:00Z</time>
      </trkpt>
      <trkpt lat="44.22507" lon="0.73048">
        <ele>170.29</ele>
        <time>2012-07-21T07:27:08Z</time>
      </trkpt>
      <trkpt lat="44.22444" lon="0.73058">
        <ele>168.37</ele>
        <time>2012-07-21T07:27:20Z</time>
      </trkpt>
      <trkpt lat="44.22415" lon="0.73061">
        <ele>167.41</ele>
        <time>2012-07-21T07:27:25Z</time>
      </trkpt>
      <trkpt lat="44.2232" lon="0.73054">
        <ele>166.45</ele>
        <time>2012-07-21T07:27:41Z</time>
      </trkpt>
      <trkpt lat="44.22286" lon="0.7305">
        <ele>167.41</ele>
        <time>2012-07-21T07:27:48Z</time>
      </trkpt>
      <trkpt lat="44.22282" lon="0.73051">
        <ele>167.41</ele>
        <time>2012-07-21T07:27:49Z</time>
      </trkpt>
      <trkpt lat="44.22235" lon="0.7306">
        <ele>170.77</ele>
        <time>2012-07-21T07:28:04Z</time>
      </trkpt>
      <trkpt lat="44.22212" lon="0.73044">
        <ele>173.17</ele>
        <time>2012-07-21T07:28:16Z</time>
      </trkpt>
      <trkpt lat="44.22192" lon="0.73035">
        <ele>175.1</ele>
        <time>2012-07-21T07:28:26Z</time>
      </trkpt>
      <trkpt lat="44.2218" lon="0.73026">
        <ele>176.06</ele>
        <time>2012-07-21T07:28:34Z</time>
      </trkpt>
      <trkpt lat="44.22166" lon="0.73017">
        <ele>177.5</ele>
        <time>2012-07-21T07:28:40Z</time>
      </trkpt>
      <trkpt lat="44.22155" lon="0.73012">
        <ele>177.5</ele>
        <time>2012-07-21T07:28:53Z</time>
      </trkpt>
      <trkpt lat="44.22153" lon="0.7301">
        <ele>177.02</ele>
        <time>2012-07-21T07:29:28Z</time>
      </trkpt>
      <trkpt lat="44.22154" lon="0.73011">
        <ele>177.98</ele>
        <time>2012-07-21T07:30:01Z</time>
      </trkpt>
      <trkpt lat="44.22154" lon="0.73011">
        <ele>177.98</ele>
        <time>2012-07-21T07:30:02Z</time>
      </trkpt>
      <trkpt lat="44.22151" lon="0.73003">
        <ele>177.98</ele>
        <time>2012-07-21T07:30:06Z</time>
      </trkpt>
      <trkpt lat="44.22144" lon="0.72958">
        <ele>177.02</ele>
        <time>2012-07-21T07:30:17Z</time>
      </trkpt>
      <trkpt lat="44.22141" lon="0.72947">
        <ele>177.02</ele>
        <time>2012-07-21T07:30:19Z</time>
      </trkpt>
      <trkpt lat="44.22137" lon="0.7293">
        <ele>176.06</ele>
        <time>2012-07-21T07:30:22Z</time>
      </trkpt>
      <trkpt lat="44.22131" lon="0.7291">
        <ele>175.1</ele>
        <time>2012-07-21T07:30:25Z</time>
      </trkpt>
      <trkpt lat="44.22123" lon="0.72883">
        <ele>174.62</ele>
        <time>2012-07-21T07:30:29Z</time>
      </trkpt>
      <trkpt lat="44.22118" lon="0.72861">
        <ele>173.66</ele>
        <time>2012-07-21T07:30:32Z</time>
      </trkpt>
      <trkpt lat="44.22109" lon="0.7283">
        <ele>173.66</ele>
        <time>2012-07-21T07:30:37Z</time>
      </trkpt>
      <trkpt lat="44.22085" lon="0.72779">
        <ele>176.06</ele>
        <time>2012-07-21T07:30:50Z</time>
      </trkpt>
      <trkpt lat="44.22081" lon="0.7277">
        <ele>177.02</ele>
        <time>2012-07-21T07:30:54Z</time>
      </trkpt>
      <trkpt lat="44.2208" lon="0.72742">
        <ele>178.46</ele>
        <time>2012-07-21T07:31:07Z</time>
      </trkpt>
      <trkpt lat="44.22082" lon="0.72708">
        <ele>178.94</ele>
        <time>2012-07-21T07:31:19Z</time>
      </trkpt>
      <trkpt lat="44.22086" lon="0.72692">
        <ele>179.9</ele>
        <time>2012-07-21T07:31:24Z</time>
      </trkpt>
      <trkpt lat="44.22092" lon="0.72674">
        <ele>179.9</ele>
        <time>2012-07-21T07:31:30Z</time>
      </trkpt>
      <trkpt lat="44.22103" lon="0.72627">
        <ele>179.42</ele>
        <time>2012-07-21T07:31:41Z</time>
      </trkpt>
      <trkpt lat="44.22106" lon="0.72591">
        <ele>178.94</ele>
        <time>2012-07-21T07:31:49Z</time>
      </trkpt>
      <trkpt lat="44.2211" lon="0.7258">
        <ele>178.94</ele>
        <time>2012-07-21T07:31:51Z</time>
      </trkpt>
      <trkpt lat="44.22126" lon="0.72534">
        <ele>178.46</ele>
        <time>2012-07-21T07:31:58Z</time>
      </trkpt>
      <trkpt lat="44.22136" lon="0.72501">
        <ele>177.98</ele>
        <time>2012-07-21T07:32:03Z</time>
      </trkpt>
      <trkpt lat="44.22155" lon="0.72449">
        <ele>177.5</ele>
        <time>2012-07-21T07:32:12Z</time>
      </trkpt>
      <trkpt lat="44.22162" lon="0.72414">
        <ele>177.5</ele>
        <time>2012-07-21T07:32:18Z</time>
      </trkpt>
      <trkpt lat="44.2217" lon="0.72335">
        <ele>179.42</ele>
        <time>2012-07-21T07:32:35Z</time>
      </trkpt>
      <trkpt lat="44.22172" lon="0.72316">
        <ele>180.38</ele>
        <time>2012-07-21T07:32:40Z</time>
      </trkpt>
      <trkpt lat="44.22189" lon="0.72289">
        <ele>180.87</ele>
        <time>2012-07-21T07:32:53Z</time>
      </trkpt>
      <trkpt lat="44.22193" lon="0.72279">
        <ele>180.87</ele>
        <time>2012-07-21T07:32:56Z</time>
      </trkpt>
      <trkpt lat="44.22237" lon="0.72237">
        <ele>178.46</ele>
        <time>2012-07-21T07:33:09Z</time>
      </trkpt>
      <trkpt lat="44.22268" lon="0.7221">
        <ele>177.5</ele>
        <time>2012-07-21T07:33:17Z</time>
      </trkpt>
      <trkpt lat="44.22304" lon="0.72168">
        <ele>177.5</ele>
        <time>2012-07-21T07:33:29Z</time>
      </trkpt>
      <trkpt lat="44.22324" lon="0.72126">
        <ele>177.5</ele>
        <time>2012-07-21T07:33:41Z</time>
      </trkpt>
      <trkpt lat="44.22347" lon="0.72067">
        <ele>176.06</ele>
        <time>2012-07-21T07:33:53Z</time>
      </trkpt>
      <trkpt lat="44.22349" lon="0.72062">
        <ele>176.06</ele>
        <time>2012-07-21T07:33:54Z</time>
      </trkpt>
      <trkpt lat="44.22366" lon="0.72018">
        <ele>176.06</ele>
        <time>2012-07-21T07:34:07Z</time>
      </trkpt>
      <trkpt lat="44.22365" lon="0.72016">
        <ele>176.06</ele>
        <time>2012-07-21T07:34:08Z</time>
      </trkpt>
      <trkpt lat="44.22363" lon="0.72011">
        <ele>176.06</ele>
        <time>2012-07-21T07:34:10Z</time>
      </trkpt>
      <trkpt lat="44.22356" lon="0.72001">
        <ele>174.62</ele>
        <time>2012-07-21T07:34:13Z</time>
      </trkpt>
      <trkpt lat="44.22334" lon="0.71957">
        <ele>171.25</ele>
        <time>2012-07-21T07:34:20Z</time>
      </trkpt>
      <trkpt lat="44.22312" lon="0.71915">
        <ele>167.89</ele>
        <time>2012-07-21T07:34:25Z</time>
      </trkpt>
      <trkpt lat="44.22298" lon="0.71885">
        <ele>165.96</ele>
        <time>2012-07-21T07:34:28Z</time>
      </trkpt>
      <trkpt lat="44.22278" lon="0.71846">
        <ele>163.56</ele>
        <time>2012-07-21T07:34:32Z</time>
      </trkpt>
      <trkpt lat="44.22222" lon="0.71744">
        <ele>160.2</ele>
        <time>2012-07-21T07:34:45Z</time>
      </trkpt>
      <trkpt lat="44.22212" lon="0.71728">
        <ele>158.75</ele>
        <time>2012-07-21T07:34:47Z</time>
      </trkpt>
      <trkpt lat="44.22181" lon="0.71686">
        <ele>155.87</ele>
        <time>2012-07-21T07:34:55Z</time>
      </trkpt>
      <trkpt lat="44.22176" lon="0.71681">
        <ele>155.39</ele>
        <time>2012-07-21T07:35:00Z</time>
      </trkpt>
      <trkpt lat="44.22151" lon="0.71636">
        <ele>155.87</ele>
        <time>2012-07-21T07:35:15Z</time>
      </trkpt>
      <trkpt lat="44.22133" lon="0.71592">
        <ele>157.31</ele>
        <time>2012-07-21T07:35:29Z</time>
      </trkpt>
      <trkpt lat="44.22129" lon="0.71571">
        <ele>158.27</ele>
        <time>2012-07-21T07:35:36Z</time>
      </trkpt>
      <trkpt lat="44.22127" lon="0.7157">
        <ele>159.24</ele>
        <time>2012-07-21T07:35:37Z</time>
      </trkpt>
      <trkpt lat="44.22112" lon="0.71584">
        <ele>159.72</ele>
        <time>2012-07-21T07:35:46Z</time>
      </trkpt>
      <trkpt lat="44.22085" lon="0.7158">
        <ele>162.6</ele>
        <time>2012-07-21T07:36:00Z</time>
      </trkpt>
      <trkpt lat="44.22081" lon="0.71581">
        <ele>163.56</ele>
        <time>2012-07-21T07:36:02Z</time>
      </trkpt>
      <trkpt lat="44.22066" lon="0.71583">
        <ele>165.48</ele>
        <time>2012-07-21T07:36:14Z</time>
      </trkpt>
      <trkpt lat="44.22057" lon="0.71582">
        <ele>166.45</ele>
        <time>2012-07-21T07:36:20Z</time>
      </trkpt>
      <trkpt lat="44.22038" lon="0.71581">
        <ele>169.33</ele>
        <time>2012-07-21T07:36:32Z</time>
      </trkpt>
      <trkpt lat="44.22021" lon="0.71584">
        <ele>171.73</ele>
        <time>2012-07-21T07:36:44Z</time>
      </trkpt>
      <trkpt lat="44.2202" lon="0.71585">
        <ele>171.73</ele>
        <time>2012-07-21T07:36:45Z</time>
      </trkpt>
      <trkpt lat="44.21999" lon="0.71586">
        <ele>173.66</ele>
        <time>2012-07-21T07:37:00Z</time>
      </trkpt>
      <trkpt lat="44.21979" lon="0.71585">
        <ele>176.06</ele>
        <time>2012-07-21T07:37:13Z</time>
      </trkpt>
      <trkpt lat="44.21962" lon="0.71585">
        <ele>176.06</ele>
        <time>2012-07-21T07:37:27Z</time>
      </trkpt>
      <trkpt lat="44.21961" lon="0.71585">
        <ele>175.58</ele>
        <time>2012-07-21T07:37:43Z</time>
      </trkpt>
      <trkpt lat="44.21962" lon="0.71585">
        <ele>175.1</ele>
        <time>2012-07-21T07:38:19Z</time>
      </trkpt>
      <trkpt lat="44.21963" lon="0.7158">
        <ele>175.1</ele>
        <time>2012-07-21T07:38:59Z</time>
      </trkpt>
      <trkpt lat="44.21963" lon="0.7158">
        <ele>175.58</ele>
        <time>2012-07-21T07:39:29Z</time>
      </trkpt>
      <trkpt lat="44.21964" lon="0.7158">
        <ele>175.1</ele>
        <time>2012-07-21T07:40:05Z</time>
      </trkpt>
      <trkpt lat="44.21963" lon="0.7158">
        <ele>175.58</ele>
        <time>2012-07-21T07:40:47Z</time>
      </trkpt>
      <trkpt lat="44.21963" lon="0.71579">
        <ele>176.06</ele>
        <time>2012-07-21T07:41:26Z</time>
      </trkpt>
      <trkpt lat="44.21964" lon="0.71579">
        <ele>175.58</ele>
        <time>2012-07-21T07:41:58Z</time>
      </trkpt>
      <trkpt lat="44.2196" lon="0.71581">
        <ele>176.54</ele>
        <time>2012-07-21T07:42:21Z</time>
      </trkpt>
      <trkpt lat="44.21934" lon="0.71586">
        <ele>175.58</ele>
        <time>2012-07-21T07:42:32Z</time>
      </trkpt>
      <trkpt lat="44.21931" lon="0.71558">
        <ele>173.66</ele>
        <time>2012-07-21T07:42:40Z</time>
      </trkpt>
      <trkpt lat="44.21933" lon="0.71542">
        <ele>172.69</ele>
        <time>2012-07-21T07:42:43Z</time>
      </trkpt>
      <trkpt lat="44.21939" lon="0.71488">
        <ele>169.33</ele>
        <time>2012-07-21T07:42:50Z</time>
      </trkpt>
      <trkpt lat="44.21946" lon="0.71438">
        <ele>165.96</ele>
        <time>2012-07-21T07:42:55Z</time>
      </trkpt>
      <trkpt lat="44.21951" lon="0.71402">
        <ele>162.6</ele>
        <time>2012-07-21T07:42:58Z</time>
      </trkpt>
      <trkpt lat="44.21954" lon="0.71377">
        <ele>159.24</ele>
        <time>2012-07-21T07:43:00Z</time>
      </trkpt>
      <trkpt lat="44.21955" lon="0.71365">
        <ele>159.24</ele>
        <time>2012-07-21T07:43:01Z</time>
      </trkpt>
      <trkpt lat="44.21967" lon="0.71329">
        <ele>155.87</ele>
        <time>2012-07-21T07:43:05Z</time>
      </trkpt>
      <trkpt lat="44.21979" lon="0.71305">
        <ele>152.03</ele>
        <time>2012-07-21T07:43:08Z</time>
      </trkpt>
      <trkpt lat="44.21988" lon="0.71275">
        <ele>147.7</ele>
        <time>2012-07-21T07:43:12Z</time>
      </trkpt>
      <trkpt lat="44.2199" lon="0.71264">
        <ele>144.82</ele>
        <time>2012-07-21T07:43:14Z</time>
      </trkpt>
      <trkpt lat="44.21986" lon="0.71237">
        <ele>139.05</ele>
        <time>2012-07-21T07:43:18Z</time>
      </trkpt>
      <trkpt lat="44.21986" lon="0.71225">
        <ele>136.64</ele>
        <time>2012-07-21T07:43:19Z</time>
      </trkpt>
      <trkpt lat="44.21987" lon="0.71177">
        <ele>131.84</ele>
        <time>2012-07-21T07:43:23Z</time>
      </trkpt>
      <trkpt lat="44.21988" lon="0.71155">
        <ele>128.95</ele>
        <time>2012-07-21T07:43:26Z</time>
      </trkpt>
      <trkpt lat="44.21998" lon="0.71116">
        <ele>124.63</ele>
        <time>2012-07-21T07:43:31Z</time>
      </trkpt>
      <trkpt lat="44.22" lon="0.71109">
        <ele>124.15</ele>
        <time>2012-07-21T07:43:32Z</time>
      </trkpt>
      <trkpt lat="44.22001" lon="0.71086">
        <ele>122.71</ele>
        <time>2012-07-21T07:43:36Z</time>
      </trkpt>
      <trkpt lat="44.22009" lon="0.71015">
        <ele>118.86</ele>
        <time>2012-07-21T07:43:46Z</time>
      </trkpt>
      <trkpt lat="44.22018" lon="0.70977">
        <ele>117.42</ele>
        <time>2012-07-21T07:43:51Z</time>
      </trkpt>
      <trkpt lat="44.22026" lon="0.7096">
        <ele>115.5</ele>
        <time>2012-07-21T07:43:54Z</time>
      </trkpt>
      <trkpt lat="44.2204" lon="0.7093">
        <ele>111.65</ele>
        <time>2012-07-21T07:43:59Z</time>
      </trkpt>
      <trkpt lat="44.22055" lon="0.709">
        <ele>110.21</ele>
        <time>2012-07-21T07:44:04Z</time>
      </trkpt>
      <trkpt lat="44.22064" lon="0.70879">
        <ele>107.32</ele>
        <time>2012-07-21T07:44:07Z</time>
      </trkpt>
      <trkpt lat="44.22068" lon="0.70854">
        <ele>105.88</ele>
        <time>2012-07-21T07:44:10Z</time>
      </trkpt>
      <trkpt lat="44.22066" lon="0.70823">
        <ele>103.48</ele>
        <time>2012-07-21T07:44:13Z</time>
      </trkpt>
      <trkpt lat="44.22066" lon="0.70813">
        <ele>103.48</ele>
        <time>2012-07-21T07:44:14Z</time>
      </trkpt>
      <trkpt lat="44.22064" lon="0.70796">
        <ele>102.52</ele>
        <time>2012-07-21T07:44:16Z</time>
      </trkpt>
      <trkpt lat="44.22064" lon="0.70789">
        <ele>101.56</ele>
        <time>2012-07-21T07:44:17Z</time>
      </trkpt>
      <trkpt lat="44.22068" lon="0.70778">
        <ele>101.08</ele>
        <time>2012-07-21T07:44:19Z</time>
      </trkpt>
      <trkpt lat="44.22074" lon="0.70764">
        <ele>101.08</ele>
        <time>2012-07-21T07:44:24Z</time>
      </trkpt>
      <trkpt lat="44.22085" lon="0.70767">
        <ele>101.08</ele>
        <time>2012-07-21T07:44:33Z</time>
      </trkpt>
      <trkpt lat="44.22089" lon="0.70768">
        <ele>100.6</ele>
        <time>2012-07-21T07:44:35Z</time>
      </trkpt>
      <trkpt lat="44.22119" lon="0.70792">
        <ele>101.56</ele>
        <time>2012-07-21T07:44:49Z</time>
      </trkpt>
      <trkpt lat="44.22156" lon="0.70815">
        <ele>102.52</ele>
        <time>2012-07-21T07:45:03Z</time>
      </trkpt>
      <trkpt lat="44.22166" lon="0.70817">
        <ele>102.04</ele>
        <time>2012-07-21T07:45:06Z</time>
      </trkpt>
      <trkpt lat="44.22174" lon="0.70818">
        <ele>101.56</ele>
        <time>2012-07-21T07:45:08Z</time>
      </trkpt>
      <trkpt lat="44.22258" lon="0.70815">
        <ele>100.6</ele>
        <time>2012-07-21T07:45:26Z</time>
      </trkpt>
      <trkpt lat="44.22309" lon="0.70812">
        <ele>100.6</ele>
        <time>2012-07-21T07:45:37Z</time>
      </trkpt>
      <trkpt lat="44.22313" lon="0.70811">
        <ele>101.08</ele>
        <time>2012-07-21T07:45:38Z</time>
      </trkpt>
      <trkpt lat="44.22317" lon="0.70809">
        <ele>101.08</ele>
        <time>2012-07-21T07:45:39Z</time>
      </trkpt>
      <trkpt lat="44.2232" lon="0.70806">
        <ele>100.6</ele>
        <time>2012-07-21T07:45:40Z</time>
      </trkpt>
      <trkpt lat="44.22323" lon="0.70801">
        <ele>101.08</ele>
        <time>2012-07-21T07:45:41Z</time>
      </trkpt>
      <trkpt lat="44.22325" lon="0.70797">
        <ele>100.6</ele>
        <time>2012-07-21T07:45:42Z</time>
      </trkpt>
      <trkpt lat="44.22327" lon="0.70791">
        <ele>101.08</ele>
        <time>2012-07-21T07:45:43Z</time>
      </trkpt>
      <trkpt lat="44.22328" lon="0.70786">
        <ele>100.6</ele>
        <time>2012-07-21T07:45:44Z</time>
      </trkpt>
      <trkpt lat="44.2233" lon="0.7078">
        <ele>101.08</ele>
        <time>2012-07-21T07:45:47Z</time>
      </trkpt>
      <trkpt lat="44.22329" lon="0.70779">
        <ele>101.56</ele>
        <time>2012-07-21T07:45:48Z</time>
      </trkpt>
      <trkpt lat="44.22304" lon="0.70762">
        <ele>101.08</ele>
        <time>2012-07-21T07:46:00Z</time>
      </trkpt>
      <trkpt lat="44.22295" lon="0.70726">
        <ele>102.52</ele>
        <time>2012-07-21T07:46:11Z</time>
      </trkpt>
      <trkpt lat="44.22291" lon="0.70714">
        <ele>103.48</ele>
        <time>2012-07-21T07:46:22Z</time>
      </trkpt>
      <trkpt lat="44.22285" lon="0.70694">
        <ele>104.92</ele>
        <time>2012-07-21T07:46:35Z</time>
      </trkpt>
      <trkpt lat="44.22279" lon="0.70663">
        <ele>108.29</ele>
        <time>2012-07-21T07:46:48Z</time>
      </trkpt>
      <trkpt lat="44.22286" lon="0.70636">
        <ele>110.21</ele>
        <time>2012-07-21T07:47:00Z</time>
      </trkpt>
      <trkpt lat="44.223" lon="0.70613">
        <ele>113.09</ele>
        <time>2012-07-21T07:47:13Z</time>
      </trkpt>
      <trkpt lat="44.22312" lon="0.70595">
        <ele>115.01</ele>
        <time>2012-07-21T07:47:26Z</time>
      </trkpt>
      <trkpt lat="44.22325" lon="0.70577">
        <ele>116.94</ele>
        <time>2012-07-21T07:47:40Z</time>
      </trkpt>
      <trkpt lat="44.22338" lon="0.70563">
        <ele>119.34</ele>
        <time>2012-07-21T07:47:54Z</time>
      </trkpt>
      <trkpt lat="44.22346" lon="0.70551">
        <ele>121.74</ele>
        <time>2012-07-21T07:48:04Z</time>
      </trkpt>
      <trkpt lat="44.22347" lon="0.70549">
        <ele>122.22</ele>
        <time>2012-07-21T07:48:06Z</time>
      </trkpt>
      <trkpt lat="44.22351" lon="0.70541">
        <ele>124.63</ele>
        <time>2012-07-21T07:48:12Z</time>
      </trkpt>
      <trkpt lat="44.22359" lon="0.70529">
        <ele>127.03</ele>
        <time>2012-07-21T07:48:21Z</time>
      </trkpt>
      <trkpt lat="44.22361" lon="0.70522">
        <ele>128.47</ele>
        <time>2012-07-21T07:48:26Z</time>
      </trkpt>
      <trkpt lat="44.22374" lon="0.70506">
        <ele>131.36</ele>
        <time>2012-07-21T07:48:41Z</time>
      </trkpt>
      <trkpt lat="44.22377" lon="0.70504">
        <ele>131.36</ele>
        <time>2012-07-21T07:48:43Z</time>
      </trkpt>
      <trkpt lat="44.22388" lon="0.70485">
        <ele>133.28</ele>
        <time>2012-07-21T07:48:57Z</time>
      </trkpt>
      <trkpt lat="44.2239" lon="0.70483">
        <ele>133.76</ele>
        <time>2012-07-21T07:48:59Z</time>
      </trkpt>
      <trkpt lat="44.22399" lon="0.70472">
        <ele>134.72</ele>
        <time>2012-07-21T07:49:05Z</time>
      </trkpt>
      <trkpt lat="44.22403" lon="0.70466">
        <ele>135.2</ele>
        <time>2012-07-21T07:49:09Z</time>
      </trkpt>
      <trkpt lat="44.22407" lon="0.70464">
        <ele>134.72</ele>
        <time>2012-07-21T07:49:12Z</time>
      </trkpt>
      <trkpt lat="44.22411" lon="0.70465">
        <ele>136.64</ele>
        <time>2012-07-21T07:49:15Z</time>
      </trkpt>
      <trkpt lat="44.22426" lon="0.70469">
        <ele>139.53</ele>
        <time>2012-07-21T07:49:28Z</time>
      </trkpt>
      <trkpt lat="44.22428" lon="0.70468">
        <ele>140.49</ele>
        <time>2012-07-21T07:49:29Z</time>
      </trkpt>
      <trkpt lat="44.22445" lon="0.70461">
        <ele>142.41</ele>
        <time>2012-07-21T07:49:43Z</time>
      </trkpt>
      <trkpt lat="44.2246" lon="0.70452">
        <ele>145.3</ele>
        <time>2012-07-21T07:49:57Z</time>
      </trkpt>
      <trkpt lat="44.2247" lon="0.70446">
        <ele>148.18</ele>
        <time>2012-07-21T07:50:10Z</time>
      </trkpt>
      <trkpt lat="44.22478" lon="0.70443">
        <ele>149.62</ele>
        <time>2012-07-21T07:50:17Z</time>
      </trkpt>
      <trkpt lat="44.22499" lon="0.70434">
        <ele>152.03</ele>
        <time>2012-07-21T07:50:31Z</time>
      </trkpt>
      <trkpt lat="44.225" lon="0.70433">
        <ele>152.03</ele>
        <time>2012-07-21T07:50:32Z</time>
      </trkpt>
      <trkpt lat="44.22508" lon="0.7043">
        <ele>152.99</ele>
        <time>2012-07-21T07:50:39Z</time>
      </trkpt>
      <trkpt lat="44.22512" lon="0.70423">
        <ele>153.47</ele>
        <time>2012-07-21T07:50:45Z</time>
      </trkpt>
      <trkpt lat="44.22513" lon="0.70412">
        <ele>154.91</ele>
        <time>2012-07-21T07:50:52Z</time>
      </trkpt>
      <trkpt lat="44.22517" lon="0.70383">
        <ele>155.87</ele>
        <time>2012-07-21T07:51:09Z</time>
      </trkpt>
      <trkpt lat="44.22519" lon="0.70342">
        <ele>154.91</ele>
        <time>2012-07-21T07:51:21Z</time>
      </trkpt>
      <trkpt lat="44.22538" lon="0.70298">
        <ele>154.91</ele>
        <time>2012-07-21T07:51:32Z</time>
      </trkpt>
      <trkpt lat="44.22561" lon="0.70261">
        <ele>156.35</ele>
        <time>2012-07-21T07:51:46Z</time>
      </trkpt>
      <trkpt lat="44.22562" lon="0.7026">
        <ele>156.83</ele>
        <time>2012-07-21T07:51:47Z</time>
      </trkpt>
      <trkpt lat="44.22561" lon="0.70248">
        <ele>156.35</ele>
        <time>2012-07-21T07:51:51Z</time>
      </trkpt>
      <trkpt lat="44.22532" lon="0.7017">
        <ele>155.39</ele>
        <time>2012-07-21T07:52:05Z</time>
      </trkpt>
      <trkpt lat="44.2251" lon="0.70117">
        <ele>155.87</ele>
        <time>2012-07-21T07:52:14Z</time>
      </trkpt>
      <trkpt lat="44.22483" lon="0.70045">
        <ele>158.75</ele>
        <time>2012-07-21T07:52:29Z</time>
      </trkpt>
      <trkpt lat="44.22446" lon="0.69958">
        <ele>157.79</ele>
        <time>2012-07-21T07:52:45Z</time>
      </trkpt>
      <trkpt lat="44.22381" lon="0.69877">
        <ele>155.87</ele>
        <time>2012-07-21T07:52:59Z</time>
      </trkpt>
      <trkpt lat="44.22288" lon="0.69792">
        <ele>155.39</ele>
        <time>2012-07-21T07:53:15Z</time>
      </trkpt>
      <trkpt lat="44.22217" lon="0.69736">
        <ele>158.75</ele>
        <time>2012-07-21T07:53:30Z</time>
      </trkpt>
      <trkpt lat="44.22204" lon="0.69731">
        <ele>158.75</ele>
        <time>2012-07-21T07:53:34Z</time>
      </trkpt>
      <trkpt lat="44.22202" lon="0.69733">
        <ele>159.24</ele>
        <time>2012-07-21T07:53:35Z</time>
      </trkpt>
      <trkpt lat="44.222" lon="0.69736">
        <ele>159.72</ele>
        <time>2012-07-21T07:53:36Z</time>
      </trkpt>
      <trkpt lat="44.22199" lon="0.69741">
        <ele>159.24</ele>
        <time>2012-07-21T07:53:37Z</time>
      </trkpt>
      <trkpt lat="44.22199" lon="0.69745">
        <ele>159.72</ele>
        <time>2012-07-21T07:53:38Z</time>
      </trkpt>
      <trkpt lat="44.22198" lon="0.69748">
        <ele>160.2</ele>
        <time>2012-07-21T07:53:39Z</time>
      </trkpt>
      <trkpt lat="44.22197" lon="0.69752">
        <ele>160.2</ele>
        <time>2012-07-21T07:53:40Z</time>
      </trkpt>
      <trkpt lat="44.22178" lon="0.6982">
        <ele>160.68</ele>
        <time>2012-07-21T07:53:54Z</time>
      </trkpt>
      <trkpt lat="44.22152" lon="0.69911">
        <ele>161.64</ele>
        <time>2012-07-21T07:54:12Z</time>
      </trkpt>
      <trkpt lat="44.22145" lon="0.69934">
        <ele>161.16</ele>
        <time>2012-07-21T07:54:16Z</time>
      </trkpt>
      <trkpt lat="44.22139" lon="0.69964">
        <ele>160.68</ele>
        <time>2012-07-21T07:54:21Z</time>
      </trkpt>
      <trkpt lat="44.22136" lon="0.69965">
        <ele>161.16</ele>
        <time>2012-07-21T07:54:22Z</time>
      </trkpt>
      <trkpt lat="44.22132" lon="0.69964">
        <ele>160.68</ele>
        <time>2012-07-21T07:54:23Z</time>
      </trkpt>
      <trkpt lat="44.22102" lon="0.6995">
        <ele>157.31</ele>
        <time>2012-07-21T07:54:28Z</time>
      </trkpt>
      <trkpt lat="44.22064" lon="0.69929">
        <ele>153.95</ele>
        <time>2012-07-21T07:54:33Z</time>
      </trkpt>
      <trkpt lat="44.22057" lon="0.69923">
        <ele>153.47</ele>
        <time>2012-07-21T07:54:34Z</time>
      </trkpt>
      <trkpt lat="44.2205" lon="0.69916">
        <ele>152.99</ele>
        <time>2012-07-21T07:54:35Z</time>
      </trkpt>
      <trkpt lat="44.22012" lon="0.69877">
        <ele>152.51</ele>
        <time>2012-07-21T07:54:41Z</time>
      </trkpt>
      <trkpt lat="44.21999" lon="0.69869">
        <ele>152.51</ele>
        <time>2012-07-21T07:54:43Z</time>
      </trkpt>
      <trkpt lat="44.21992" lon="0.69867">
        <ele>152.51</ele>
        <time>2012-07-21T07:54:44Z</time>
      </trkpt>
      <trkpt lat="44.21986" lon="0.69865">
        <ele>152.51</ele>
        <time>2012-07-21T07:54:45Z</time>
      </trkpt>
      <trkpt lat="44.21963" lon="0.69856">
        <ele>152.99</ele>
        <time>2012-07-21T07:54:49Z</time>
      </trkpt>
      <trkpt lat="44.21959" lon="0.69853">
        <ele>152.99</ele>
        <time>2012-07-21T07:54:50Z</time>
      </trkpt>
      <trkpt lat="44.21945" lon="0.69846">
        <ele>152.99</ele>
        <time>2012-07-21T07:54:53Z</time>
      </trkpt>
      <trkpt lat="44.21941" lon="0.69845">
        <ele>153.47</ele>
        <time>2012-07-21T07:54:54Z</time>
      </trkpt>
      <trkpt lat="44.21937" lon="0.69845">
        <ele>153.47</ele>
        <time>2012-07-21T07:54:55Z</time>
      </trkpt>
      <trkpt lat="44.21899" lon="0.69872">
        <ele>154.91</ele>
        <time>2012-07-21T07:55:07Z</time>
      </trkpt>
      <trkpt lat="44.21859" lon="0.6991">
        <ele>154.91</ele>
        <time>2012-07-21T07:55:20Z</time>
      </trkpt>
      <trkpt lat="44.21825" lon="0.69943">
        <ele>155.39</ele>
        <time>2012-07-21T07:55:31Z</time>
      </trkpt>
      <trkpt lat="44.21787" lon="0.69976">
        <ele>156.83</ele>
        <time>2012-07-21T07:55:43Z</time>
      </trkpt>
      <trkpt lat="44.21751" lon="0.7">
        <ele>158.27</ele>
        <time>2012-07-21T07:55:55Z</time>
      </trkpt>
      <trkpt lat="44.21705" lon="0.70027">
        <ele>157.31</ele>
        <time>2012-07-21T07:56:06Z</time>
      </trkpt>
      <trkpt lat="44.2167" lon="0.70054">
        <ele>158.75</ele>
        <time>2012-07-21T07:56:15Z</time>
      </trkpt>
      <trkpt lat="44.21667" lon="0.70056">
        <ele>159.24</ele>
        <time>2012-07-21T07:56:16Z</time>
      </trkpt>
      <trkpt lat="44.21617" lon="0.70079">
        <ele>159.72</ele>
        <time>2012-07-21T07:56:29Z</time>
      </trkpt>
      <trkpt lat="44.21567" lon="0.70109">
        <ele>162.12</ele>
        <time>2012-07-21T07:56:43Z</time>
      </trkpt>
      <trkpt lat="44.21532" lon="0.70118">
        <ele>161.64</ele>
        <time>2012-07-21T07:56:53Z</time>
      </trkpt>
      <trkpt lat="44.21528" lon="0.70118">
        <ele>161.64</ele>
        <time>2012-07-21T07:56:54Z</time>
      </trkpt>
      <trkpt lat="44.21524" lon="0.70119">
        <ele>161.64</ele>
        <time>2012-07-21T07:56:55Z</time>
      </trkpt>
      <trkpt lat="44.2152" lon="0.70119">
        <ele>161.64</ele>
        <time>2012-07-21T07:56:56Z</time>
      </trkpt>
      <trkpt lat="44.21516" lon="0.70121">
        <ele>161.64</ele>
        <time>2012-07-21T07:56:57Z</time>
      </trkpt>
      <trkpt lat="44.21511" lon="0.70122">
        <ele>161.16</ele>
        <time>2012-07-21T07:56:58Z</time>
      </trkpt>
      <trkpt lat="44.21465" lon="0.70131">
        <ele>162.12</ele>
        <time>2012-07-21T07:57:09Z</time>
      </trkpt>
      <trkpt lat="44.21461" lon="0.70132">
        <ele>162.12</ele>
        <time>2012-07-21T07:57:10Z</time>
      </trkpt>
      <trkpt lat="44.21457" lon="0.70134">
        <ele>162.12</ele>
        <time>2012-07-21T07:57:11Z</time>
      </trkpt>
      <trkpt lat="44.21453" lon="0.70136">
        <ele>162.6</ele>
        <time>2012-07-21T07:57:12Z</time>
      </trkpt>
      <trkpt lat="44.21449" lon="0.70138">
        <ele>162.12</ele>
        <time>2012-07-21T07:57:13Z</time>
      </trkpt>
      <trkpt lat="44.21445" lon="0.70139">
        <ele>162.6</ele>
        <time>2012-07-21T07:57:14Z</time>
      </trkpt>
      <trkpt lat="44.21437" lon="0.70142">
        <ele>163.08</ele>
        <time>2012-07-21T07:57:16Z</time>
      </trkpt>
      <trkpt lat="44.21384" lon="0.70148">
        <ele>164.52</ele>
        <time>2012-07-21T07:57:31Z</time>
      </trkpt>
      <trkpt lat="44.21338" lon="0.70129">
        <ele>163.56</ele>
        <time>2012-07-21T07:57:43Z</time>
      </trkpt>
      <trkpt lat="44.21333" lon="0.70125">
        <ele>163.56</ele>
        <time>2012-07-21T07:57:44Z</time>
      </trkpt>
      <trkpt lat="44.21328" lon="0.70121">
        <ele>163.08</ele>
        <time>2012-07-21T07:57:45Z</time>
      </trkpt>
      <trkpt lat="44.21318" lon="0.70112">
        <ele>162.6</ele>
        <time>2012-07-21T07:57:47Z</time>
      </trkpt>
      <trkpt lat="44.21306" lon="0.70095">
        <ele>162.12</ele>
        <time>2012-07-21T07:57:50Z</time>
      </trkpt>
      <trkpt lat="44.21303" lon="0.7009">
        <ele>161.64</ele>
        <time>2012-07-21T07:57:51Z</time>
      </trkpt>
      <trkpt lat="44.213" lon="0.70086">
        <ele>161.64</ele>
        <time>2012-07-21T07:57:52Z</time>
      </trkpt>
      <trkpt lat="44.21267" lon="0.70044">
        <ele>159.72</ele>
        <time>2012-07-21T07:58:02Z</time>
      </trkpt>
      <trkpt lat="44.21225" lon="0.69984">
        <ele>159.24</ele>
        <time>2012-07-21T07:58:14Z</time>
      </trkpt>
      <trkpt lat="44.21225" lon="0.69979">
        <ele>159.24</ele>
        <time>2012-07-21T07:58:15Z</time>
      </trkpt>
      <trkpt lat="44.21226" lon="0.69975">
        <ele>159.24</ele>
        <time>2012-07-21T07:58:16Z</time>
      </trkpt>
      <trkpt lat="44.21228" lon="0.69972">
        <ele>158.75</ele>
        <time>2012-07-21T07:58:17Z</time>
      </trkpt>
      <trkpt lat="44.21229" lon="0.69969">
        <ele>159.24</ele>
        <time>2012-07-21T07:58:18Z</time>
      </trkpt>
      <trkpt lat="44.21267" lon="0.69921">
        <ele>162.6</ele>
        <time>2012-07-21T07:58:37Z</time>
      </trkpt>
      <trkpt lat="44.21298" lon="0.69884">
        <ele>165.48</ele>
        <time>2012-07-21T07:58:53Z</time>
      </trkpt>
      <trkpt lat="44.2131" lon="0.69872">
        <ele>165.48</ele>
        <time>2012-07-21T07:58:59Z</time>
      </trkpt>
      <trkpt lat="44.21311" lon="0.69871">
        <ele>165.96</ele>
        <time>2012-07-21T07:59:00Z</time>
      </trkpt>
      <trkpt lat="44.21338" lon="0.69843">
        <ele>166.45</ele>
        <time>2012-07-21T07:59:12Z</time>
      </trkpt>
      <trkpt lat="44.21346" lon="0.69835">
        <ele>166.93</ele>
        <time>2012-07-21T07:59:15Z</time>
      </trkpt>
      <trkpt lat="44.21356" lon="0.69823">
        <ele>166.45</ele>
        <time>2012-07-21T07:59:19Z</time>
      </trkpt>
      <trkpt lat="44.21392" lon="0.6978">
        <ele>165.96</ele>
        <time>2012-07-21T07:59:29Z</time>
      </trkpt>
      <trkpt lat="44.21401" lon="0.69772">
        <ele>165.48</ele>
        <time>2012-07-21T07:59:31Z</time>
      </trkpt>
      <trkpt lat="44.21422" lon="0.69747">
        <ele>165</ele>
        <time>2012-07-21T07:59:36Z</time>
      </trkpt>
      <trkpt lat="44.21432" lon="0.69725">
        <ele>163.56</ele>
        <time>2012-07-21T07:59:39Z</time>
      </trkpt>
      <trkpt lat="44.21436" lon="0.69708">
        <ele>162.6</ele>
        <time>2012-07-21T07:59:41Z</time>
      </trkpt>
      <trkpt lat="44.21448" lon="0.69655">
        <ele>158.75</ele>
        <time>2012-07-21T07:59:46Z</time>
      </trkpt>
      <trkpt lat="44.21457" lon="0.69604">
        <ele>154.43</ele>
        <time>2012-07-21T07:59:50Z</time>
      </trkpt>
      <trkpt lat="44.21468" lon="0.69557">
        <ele>151.54</ele>
        <time>2012-07-21T07:59:56Z</time>
      </trkpt>
      <trkpt lat="44.21472" lon="0.69554">
        <ele>151.54</ele>
        <time>2012-07-21T07:59:57Z</time>
      </trkpt>
      <trkpt lat="44.21476" lon="0.69552">
        <ele>151.54</ele>
        <time>2012-07-21T07:59:58Z</time>
      </trkpt>
      <trkpt lat="44.21527" lon="0.69528">
        <ele>152.03</ele>
        <time>2012-07-21T08:00:10Z</time>
      </trkpt>
      <trkpt lat="44.21531" lon="0.69526">
        <ele>152.03</ele>
        <time>2012-07-21T08:00:11Z</time>
      </trkpt>
      <trkpt lat="44.21536" lon="0.69523">
        <ele>151.54</ele>
        <time>2012-07-21T08:00:12Z</time>
      </trkpt>
      <trkpt lat="44.21558" lon="0.69508">
        <ele>150.1</ele>
        <time>2012-07-21T08:00:16Z</time>
      </trkpt>
      <trkpt lat="44.21579" lon="0.6949">
        <ele>149.14</ele>
        <time>2012-07-21T08:00:20Z</time>
      </trkpt>
      <trkpt lat="44.21583" lon="0.69484">
        <ele>149.14</ele>
        <time>2012-07-21T08:00:21Z</time>
      </trkpt>
      <trkpt lat="44.21587" lon="0.69477">
        <ele>149.14</ele>
        <time>2012-07-21T08:00:22Z</time>
      </trkpt>
      <trkpt lat="44.2159" lon="0.6947">
        <ele>149.14</ele>
        <time>2012-07-21T08:00:23Z</time>
      </trkpt>
      <trkpt lat="44.21593" lon="0.69463">
        <ele>149.14</ele>
        <time>2012-07-21T08:00:24Z</time>
      </trkpt>
      <trkpt lat="44.216" lon="0.69438">
        <ele>150.58</ele>
        <time>2012-07-21T08:00:28Z</time>
      </trkpt>
      <trkpt lat="44.216" lon="0.69433">
        <ele>151.54</ele>
        <time>2012-07-21T08:00:29Z</time>
      </trkpt>
      <trkpt lat="44.21599" lon="0.69429">
        <ele>151.06</ele>
        <time>2012-07-21T08:00:30Z</time>
      </trkpt>
      <trkpt lat="44.21575" lon="0.69399">
        <ele>152.99</ele>
        <time>2012-07-21T08:00:41Z</time>
      </trkpt>
      <trkpt lat="44.21538" lon="0.69345">
        <ele>156.35</ele>
        <time>2012-07-21T08:00:58Z</time>
      </trkpt>
      <trkpt lat="44.21509" lon="0.69297">
        <ele>157.79</ele>
        <time>2012-07-21T08:01:14Z</time>
      </trkpt>
      <trkpt lat="44.21477" lon="0.69218">
        <ele>155.87</ele>
        <time>2012-07-21T08:01:26Z</time>
      </trkpt>
      <trkpt lat="44.21466" lon="0.69192">
        <ele>153.95</ele>
        <time>2012-07-21T08:01:29Z</time>
      </trkpt>
      <trkpt lat="44.21461" lon="0.69184">
        <ele>153.95</ele>
        <time>2012-07-21T08:01:30Z</time>
      </trkpt>
      <trkpt lat="44.21454" lon="0.6918">
        <ele>153.95</ele>
        <time>2012-07-21T08:01:31Z</time>
      </trkpt>
      <trkpt lat="44.21447" lon="0.69178">
        <ele>153.47</ele>
        <time>2012-07-21T08:01:32Z</time>
      </trkpt>
      <trkpt lat="44.2144" lon="0.69177">
        <ele>152.99</ele>
        <time>2012-07-21T08:01:33Z</time>
      </trkpt>
      <trkpt lat="44.21433" lon="0.69177">
        <ele>153.47</ele>
        <time>2012-07-21T08:01:34Z</time>
      </trkpt>
      <trkpt lat="44.21426" lon="0.69175">
        <ele>152.99</ele>
        <time>2012-07-21T08:01:35Z</time>
      </trkpt>
      <trkpt lat="44.21419" lon="0.69172">
        <ele>152.99</ele>
        <time>2012-07-21T08:01:36Z</time>
      </trkpt>
      <trkpt lat="44.21399" lon="0.69165">
        <ele>152.99</ele>
        <time>2012-07-21T08:01:39Z</time>
      </trkpt>
      <trkpt lat="44.21386" lon="0.69164">
        <ele>152.51</ele>
        <time>2012-07-21T08:01:41Z</time>
      </trkpt>
      <trkpt lat="44.2138" lon="0.69166">
        <ele>152.51</ele>
        <time>2012-07-21T08:01:42Z</time>
      </trkpt>
      <trkpt lat="44.21354" lon="0.69178">
        <ele>152.51</ele>
        <time>2012-07-21T08:01:46Z</time>
      </trkpt>
      <trkpt lat="44.21347" lon="0.69181">
        <ele>152.03</ele>
        <time>2012-07-21T08:01:47Z</time>
      </trkpt>
      <trkpt lat="44.2134" lon="0.69183">
        <ele>152.03</ele>
        <time>2012-07-21T08:01:48Z</time>
      </trkpt>
      <trkpt lat="44.21334" lon="0.69184">
        <ele>152.03</ele>
        <time>2012-07-21T08:01:49Z</time>
      </trkpt>
      <trkpt lat="44.21327" lon="0.69185">
        <ele>152.03</ele>
        <time>2012-07-21T08:01:50Z</time>
      </trkpt>
      <trkpt lat="44.21321" lon="0.69184">
        <ele>152.51</ele>
        <time>2012-07-21T08:01:51Z</time>
      </trkpt>
      <trkpt lat="44.21315" lon="0.69182">
        <ele>152.51</ele>
        <time>2012-07-21T08:01:52Z</time>
      </trkpt>
      <trkpt lat="44.2131" lon="0.6918">
        <ele>152.99</ele>
        <time>2012-07-21T08:01:53Z</time>
      </trkpt>
      <trkpt lat="44.21306" lon="0.69177">
        <ele>152.99</ele>
        <time>2012-07-21T08:01:54Z</time>
      </trkpt>
      <trkpt lat="44.21301" lon="0.69173">
        <ele>152.99</ele>
        <time>2012-07-21T08:01:55Z</time>
      </trkpt>
      <trkpt lat="44.21284" lon="0.69159">
        <ele>151.54</ele>
        <time>2012-07-21T08:01:58Z</time>
      </trkpt>
      <trkpt lat="44.21274" lon="0.69149">
        <ele>152.51</ele>
        <time>2012-07-21T08:02:00Z</time>
      </trkpt>
      <trkpt lat="44.21269" lon="0.69143">
        <ele>152.51</ele>
        <time>2012-07-21T08:02:01Z</time>
      </trkpt>
      <trkpt lat="44.21266" lon="0.69137">
        <ele>152.51</ele>
        <time>2012-07-21T08:02:02Z</time>
      </trkpt>
      <trkpt lat="44.21263" lon="0.69131">
        <ele>152.99</ele>
        <time>2012-07-21T08:02:03Z</time>
      </trkpt>
      <trkpt lat="44.2126" lon="0.69124">
        <ele>153.47</ele>
        <time>2012-07-21T08:02:04Z</time>
      </trkpt>
      <trkpt lat="44.21259" lon="0.69118">
        <ele>153.47</ele>
        <time>2012-07-21T08:02:05Z</time>
      </trkpt>
      <trkpt lat="44.21258" lon="0.69112">
        <ele>153.95</ele>
        <time>2012-07-21T08:02:06Z</time>
      </trkpt>
      <trkpt lat="44.21247" lon="0.69053">
        <ele>157.31</ele>
        <time>2012-07-21T08:02:19Z</time>
      </trkpt>
      <trkpt lat="44.21231" lon="0.6899">
        <ele>159.24</ele>
        <time>2012-07-21T08:02:33Z</time>
      </trkpt>
      <trkpt lat="44.21232" lon="0.68986">
        <ele>159.24</ele>
        <time>2012-07-21T08:02:34Z</time>
      </trkpt>
      <trkpt lat="44.21235" lon="0.68983">
        <ele>159.24</ele>
        <time>2012-07-21T08:02:35Z</time>
      </trkpt>
      <trkpt lat="44.21239" lon="0.68981">
        <ele>159.24</ele>
        <time>2012-07-21T08:02:36Z</time>
      </trkpt>
      <trkpt lat="44.21242" lon="0.6898">
        <ele>159.72</ele>
        <time>2012-07-21T08:02:37Z</time>
      </trkpt>
      <trkpt lat="44.21282" lon="0.68971">
        <ele>162.12</ele>
        <time>2012-07-21T08:02:51Z</time>
      </trkpt>
      <trkpt lat="44.21317" lon="0.68962">
        <ele>165</ele>
        <time>2012-07-21T08:03:05Z</time>
      </trkpt>
      <trkpt lat="44.21349" lon="0.68954">
        <ele>167.89</ele>
        <time>2012-07-21T08:03:19Z</time>
      </trkpt>
      <trkpt lat="44.21376" lon="0.68948">
        <ele>170.29</ele>
        <time>2012-07-21T08:03:33Z</time>
      </trkpt>
      <trkpt lat="44.21396" lon="0.68944">
        <ele>171.73</ele>
        <time>2012-07-21T08:03:44Z</time>
      </trkpt>
      <trkpt lat="44.21417" lon="0.68938">
        <ele>173.17</ele>
        <time>2012-07-21T08:03:55Z</time>
      </trkpt>
      <trkpt lat="44.21445" lon="0.68905">
        <ele>173.66</ele>
        <time>2012-07-21T08:04:09Z</time>
      </trkpt>
      <trkpt lat="44.21475" lon="0.68897">
        <ele>174.62</ele>
        <time>2012-07-21T08:04:21Z</time>
      </trkpt>
      <trkpt lat="44.21524" lon="0.689">
        <ele>174.14</ele>
        <time>2012-07-21T08:04:36Z</time>
      </trkpt>
      <trkpt lat="44.21584" lon="0.68894">
        <ele>174.62</ele>
        <time>2012-07-21T08:04:52Z</time>
      </trkpt>
      <trkpt lat="44.21635" lon="0.68882">
        <ele>175.58</ele>
        <time>2012-07-21T08:05:08Z</time>
      </trkpt>
      <trkpt lat="44.21675" lon="0.68865">
        <ele>177.02</ele>
        <time>2012-07-21T08:05:23Z</time>
      </trkpt>
      <trkpt lat="44.21704" lon="0.68845">
        <ele>177.02</ele>
        <time>2012-07-21T08:05:34Z</time>
      </trkpt>
      <trkpt lat="44.21697" lon="0.68774">
        <ele>176.06</ele>
        <time>2012-07-21T08:05:47Z</time>
      </trkpt>
      <trkpt lat="44.21678" lon="0.68636">
        <ele>173.66</ele>
        <time>2012-07-21T08:06:04Z</time>
      </trkpt>
      <trkpt lat="44.21671" lon="0.68587">
        <ele>173.17</ele>
        <time>2012-07-21T08:06:12Z</time>
      </trkpt>
      <trkpt lat="44.21673" lon="0.68584">
        <ele>173.17</ele>
        <time>2012-07-21T08:06:13Z</time>
      </trkpt>
      <trkpt lat="44.21675" lon="0.68582">
        <ele>172.69</ele>
        <time>2012-07-21T08:06:14Z</time>
      </trkpt>
      <trkpt lat="44.21697" lon="0.68541">
        <ele>173.17</ele>
        <time>2012-07-21T08:06:27Z</time>
      </trkpt>
      <trkpt lat="44.21722" lon="0.68488">
        <ele>172.69</ele>
        <time>2012-07-21T08:06:39Z</time>
      </trkpt>
      <trkpt lat="44.21726" lon="0.68485">
        <ele>172.69</ele>
        <time>2012-07-21T08:06:40Z</time>
      </trkpt>
      <trkpt lat="44.2173" lon="0.68483">
        <ele>172.21</ele>
        <time>2012-07-21T08:06:41Z</time>
      </trkpt>
      <trkpt lat="44.21739" lon="0.6848">
        <ele>171.73</ele>
        <time>2012-07-21T08:06:43Z</time>
      </trkpt>
      <trkpt lat="44.21757" lon="0.68474">
        <ele>171.73</ele>
        <time>2012-07-21T08:06:47Z</time>
      </trkpt>
      <trkpt lat="44.21762" lon="0.68474">
        <ele>171.73</ele>
        <time>2012-07-21T08:06:48Z</time>
      </trkpt>
      <trkpt lat="44.21784" lon="0.68472">
        <ele>170.29</ele>
        <time>2012-07-21T08:06:52Z</time>
      </trkpt>
      <trkpt lat="44.21789" lon="0.68468">
        <ele>169.81</ele>
        <time>2012-07-21T08:06:53Z</time>
      </trkpt>
      <trkpt lat="44.21793" lon="0.68462">
        <ele>169.33</ele>
        <time>2012-07-21T08:06:54Z</time>
      </trkpt>
      <trkpt lat="44.21796" lon="0.68455">
        <ele>169.81</ele>
        <time>2012-07-21T08:06:55Z</time>
      </trkpt>
      <trkpt lat="44.21797" lon="0.68447">
        <ele>169.33</ele>
        <time>2012-07-21T08:06:56Z</time>
      </trkpt>
      <trkpt lat="44.21797" lon="0.6844">
        <ele>169.81</ele>
        <time>2012-07-21T08:06:57Z</time>
      </trkpt>
      <trkpt lat="44.21796" lon="0.68433">
        <ele>169.33</ele>
        <time>2012-07-21T08:06:58Z</time>
      </trkpt>
      <trkpt lat="44.21795" lon="0.68427">
        <ele>170.29</ele>
        <time>2012-07-21T08:06:59Z</time>
      </trkpt>
      <trkpt lat="44.21794" lon="0.68422">
        <ele>170.77</ele>
        <time>2012-07-21T08:07:00Z</time>
      </trkpt>
      <trkpt lat="44.21791" lon="0.6841">
        <ele>171.73</ele>
        <time>2012-07-21T08:07:03Z</time>
      </trkpt>
      <trkpt lat="44.21792" lon="0.68406">
        <ele>170.77</ele>
        <time>2012-07-21T08:07:04Z</time>
      </trkpt>
      <trkpt lat="44.21806" lon="0.68397">
        <ele>170.77</ele>
        <time>2012-07-21T08:07:11Z</time>
      </trkpt>
      <trkpt lat="44.21808" lon="0.68406">
        <ele>169.81</ele>
        <time>2012-07-21T08:07:17Z</time>
      </trkpt>
      <trkpt lat="44.218" lon="0.68441">
        <ele>169.81</ele>
        <time>2012-07-21T08:07:26Z</time>
      </trkpt>
      <trkpt lat="44.21806" lon="0.68455">
        <ele>169.33</ele>
        <time>2012-07-21T08:07:29Z</time>
      </trkpt>
      <trkpt lat="44.21829" lon="0.68479">
        <ele>165.96</ele>
        <time>2012-07-21T08:07:37Z</time>
      </trkpt>
      <trkpt lat="44.21846" lon="0.68501">
        <ele>163.56</ele>
        <time>2012-07-21T08:07:43Z</time>
      </trkpt>
      <trkpt lat="44.21849" lon="0.68507">
        <ele>163.08</ele>
        <time>2012-07-21T08:07:45Z</time>
      </trkpt>
      <trkpt lat="44.21883" lon="0.68502">
        <ele>161.16</ele>
        <time>2012-07-21T08:07:56Z</time>
      </trkpt>
      <trkpt lat="44.21907" lon="0.68485">
        <ele>160.68</ele>
        <time>2012-07-21T08:08:03Z</time>
      </trkpt>
      <trkpt lat="44.21914" lon="0.68482">
        <ele>160.68</ele>
        <time>2012-07-21T08:08:05Z</time>
      </trkpt>
      <trkpt lat="44.21921" lon="0.68477">
        <ele>160.2</ele>
        <time>2012-07-21T08:08:07Z</time>
      </trkpt>
      <trkpt lat="44.21954" lon="0.68465">
        <ele>157.31</ele>
        <time>2012-07-21T08:08:13Z</time>
      </trkpt>
      <trkpt lat="44.21989" lon="0.68452">
        <ele>155.87</ele>
        <time>2012-07-21T08:08:19Z</time>
      </trkpt>
      <trkpt lat="44.22008" lon="0.68447">
        <ele>154.43</ele>
        <time>2012-07-21T08:08:22Z</time>
      </trkpt>
      <trkpt lat="44.22015" lon="0.68446">
        <ele>154.43</ele>
        <time>2012-07-21T08:08:23Z</time>
      </trkpt>
      <trkpt lat="44.22045" lon="0.68435">
        <ele>152.99</ele>
        <time>2012-07-21T08:08:28Z</time>
      </trkpt>
      <trkpt lat="44.22077" lon="0.68426">
        <ele>151.54</ele>
        <time>2012-07-21T08:08:33Z</time>
      </trkpt>
      <trkpt lat="44.22088" lon="0.68419">
        <ele>150.58</ele>
        <time>2012-07-21T08:08:35Z</time>
      </trkpt>
      <trkpt lat="44.22098" lon="0.68415">
        <ele>149.62</ele>
        <time>2012-07-21T08:08:37Z</time>
      </trkpt>
      <trkpt lat="44.22108" lon="0.68416">
        <ele>148.18</ele>
        <time>2012-07-21T08:08:39Z</time>
      </trkpt>
      <trkpt lat="44.22113" lon="0.68412">
        <ele>146.74</ele>
        <time>2012-07-21T08:08:44Z</time>
      </trkpt>
      <trkpt lat="44.22114" lon="0.68402">
        <ele>146.26</ele>
        <time>2012-07-21T08:08:55Z</time>
      </trkpt>
      <trkpt lat="44.22117" lon="0.68399">
        <ele>145.78</ele>
        <time>2012-07-21T08:09:10Z</time>
      </trkpt>
      <trkpt lat="44.2212" lon="0.68395">
        <ele>144.82</ele>
        <time>2012-07-21T08:09:12Z</time>
      </trkpt>
      <trkpt lat="44.22122" lon="0.68373">
        <ele>142.41</ele>
        <time>2012-07-21T08:09:16Z</time>
      </trkpt>
      <trkpt lat="44.2212" lon="0.68338">
        <ele>138.57</ele>
        <time>2012-07-21T08:09:21Z</time>
      </trkpt>
      <trkpt lat="44.22121" lon="0.6833">
        <ele>137.61</ele>
        <time>2012-07-21T08:09:23Z</time>
      </trkpt>
      <trkpt lat="44.22122" lon="0.68324">
        <ele>137.13</ele>
        <time>2012-07-21T08:09:26Z</time>
      </trkpt>
      <trkpt lat="44.22123" lon="0.68299">
        <ele>135.2</ele>
        <time>2012-07-21T08:09:35Z</time>
      </trkpt>
      <trkpt lat="44.22126" lon="0.68291">
        <ele>134.24</ele>
        <time>2012-07-21T08:09:37Z</time>
      </trkpt>
      <trkpt lat="44.22128" lon="0.68265">
        <ele>133.76</ele>
        <time>2012-07-21T08:09:49Z</time>
      </trkpt>
      <trkpt lat="44.2213" lon="0.6826">
        <ele>133.76</ele>
        <time>2012-07-21T08:10:20Z</time>
      </trkpt>
      <trkpt lat="44.2213" lon="0.68251">
        <ele>133.28</ele>
        <time>2012-07-21T08:10:51Z</time>
      </trkpt>
      <trkpt lat="44.2213" lon="0.68253">
        <ele>133.28</ele>
        <time>2012-07-21T08:11:28Z</time>
      </trkpt>
      <trkpt lat="44.2213" lon="0.68252">
        <ele>134.72</ele>
        <time>2012-07-21T08:12:01Z</time>
      </trkpt>
      <trkpt lat="44.2213" lon="0.68251">
        <ele>136.64</ele>
        <time>2012-07-21T08:12:13Z</time>
      </trkpt>
      <trkpt lat="44.22129" lon="0.68253">
        <ele>137.13</ele>
        <time>2012-07-21T08:12:24Z</time>
      </trkpt>
      <trkpt lat="44.2213" lon="0.68261">
        <ele>138.09</ele>
        <time>2012-07-21T08:12:38Z</time>
      </trkpt>
      <trkpt lat="44.2213" lon="0.68263">
        <ele>137.61</ele>
        <time>2012-07-21T08:12:58Z</time>
      </trkpt>
      <trkpt lat="44.2213" lon="0.6826">
        <ele>138.09</ele>
        <time>2012-07-21T08:13:14Z</time>
      </trkpt>
      <trkpt lat="44.22131" lon="0.68259">
        <ele>137.61</ele>
        <time>2012-07-21T08:13:18Z</time>
      </trkpt>
      <trkpt lat="44.22131" lon="0.68264">
        <ele>138.09</ele>
        <time>2012-07-21T08:13:31Z</time>
      </trkpt>
      <trkpt lat="44.22131" lon="0.6827">
        <ele>136.16</ele>
        <time>2012-07-21T08:13:52Z</time>
      </trkpt>
      <trkpt lat="44.22132" lon="0.68268">
        <ele>135.2</ele>
        <time>2012-07-21T08:13:57Z</time>
      </trkpt>
      <trkpt lat="44.22136" lon="0.68253">
        <ele>133.76</ele>
        <time>2012-07-21T08:14:08Z</time>
      </trkpt>
      <trkpt lat="44.22136" lon="0.68251">
        <ele>133.76</ele>
        <time>2012-07-21T08:14:22Z</time>
      </trkpt>
      <trkpt lat="44.22137" lon="0.6825">
        <ele>133.28</ele>
        <time>2012-07-21T08:14:37Z</time>
      </trkpt>
      <trkpt lat="44.22137" lon="0.68249">
        <ele>132.8</ele>
        <time>2012-07-21T08:14:39Z</time>
      </trkpt>
      <trkpt lat="44.22157" lon="0.68219">
        <ele>130.4</ele>
        <time>2012-07-21T08:14:48Z</time>
      </trkpt>
      <trkpt lat="44.22167" lon="0.68207">
        <ele>130.4</ele>
        <time>2012-07-21T08:14:51Z</time>
      </trkpt>
      <trkpt lat="44.22173" lon="0.68199">
        <ele>130.4</ele>
        <time>2012-07-21T08:14:53Z</time>
      </trkpt>
      <trkpt lat="44.2218" lon="0.6819">
        <ele>130.4</ele>
        <time>2012-07-21T08:14:55Z</time>
      </trkpt>
      <trkpt lat="44.22194" lon="0.68175">
        <ele>131.84</ele>
        <time>2012-07-21T08:15:00Z</time>
      </trkpt>
      <trkpt lat="44.22214" lon="0.68146">
        <ele>130.4</ele>
        <time>2012-07-21T08:15:10Z</time>
      </trkpt>
      <trkpt lat="44.22227" lon="0.68125">
        <ele>128.95</ele>
        <time>2012-07-21T08:15:16Z</time>
      </trkpt>
      <trkpt lat="44.22254" lon="0.68099">
        <ele>127.03</ele>
        <time>2012-07-21T08:15:19Z</time>
      </trkpt>
      <trkpt lat="44.22265" lon="0.68081">
        <ele>124.15</ele>
        <time>2012-07-21T08:15:21Z</time>
      </trkpt>
      <trkpt lat="44.22284" lon="0.68055">
        <ele>118.38</ele>
        <time>2012-07-21T08:15:24Z</time>
      </trkpt>
      <trkpt lat="44.22289" lon="0.68049">
        <ele>117.42</ele>
        <time>2012-07-21T08:15:25Z</time>
      </trkpt>
      <trkpt lat="44.22293" lon="0.68045">
        <ele>115.98</ele>
        <time>2012-07-21T08:15:26Z</time>
      </trkpt>
      <trkpt lat="44.22299" lon="0.68042">
        <ele>115.01</ele>
        <time>2012-07-21T08:15:27Z</time>
      </trkpt>
      <trkpt lat="44.22304" lon="0.6804">
        <ele>114.05</ele>
        <time>2012-07-21T08:15:28Z</time>
      </trkpt>
      <trkpt lat="44.22308" lon="0.68037">
        <ele>112.13</ele>
        <time>2012-07-21T08:15:29Z</time>
      </trkpt>
      <trkpt lat="44.22312" lon="0.68032">
        <ele>110.69</ele>
        <time>2012-07-21T08:15:30Z</time>
      </trkpt>
      <trkpt lat="44.22323" lon="0.68014">
        <ele>107.81</ele>
        <time>2012-07-21T08:15:33Z</time>
      </trkpt>
      <trkpt lat="44.22356" lon="0.67979">
        <ele>106.36</ele>
        <time>2012-07-21T08:15:36Z</time>
      </trkpt>
      <trkpt lat="44.22364" lon="0.67971">
        <ele>104.92</ele>
        <time>2012-07-21T08:15:37Z</time>
      </trkpt>
      <trkpt lat="44.2237" lon="0.67964">
        <ele>103.96</ele>
        <time>2012-07-21T08:15:38Z</time>
      </trkpt>
      <trkpt lat="44.22377" lon="0.6796">
        <ele>103.48</ele>
        <time>2012-07-21T08:15:39Z</time>
      </trkpt>
      <trkpt lat="44.22383" lon="0.67958">
        <ele>103</ele>
        <time>2012-07-21T08:15:40Z</time>
      </trkpt>
      <trkpt lat="44.22389" lon="0.67958">
        <ele>101.56</ele>
        <time>2012-07-21T08:15:41Z</time>
      </trkpt>
      <trkpt lat="44.22396" lon="0.6796">
        <ele>101.08</ele>
        <time>2012-07-21T08:15:42Z</time>
      </trkpt>
      <trkpt lat="44.22435" lon="0.67964">
        <ele>97.71</ele>
        <time>2012-07-21T08:15:47Z</time>
      </trkpt>
      <trkpt lat="44.22461" lon="0.67969">
        <ele>94.35</ele>
        <time>2012-07-21T08:15:51Z</time>
      </trkpt>
      <trkpt lat="44.22468" lon="0.6797">
        <ele>93.39</ele>
        <time>2012-07-21T08:15:52Z</time>
      </trkpt>
      <trkpt lat="44.22476" lon="0.6797">
        <ele>92.42</ele>
        <time>2012-07-21T08:15:53Z</time>
      </trkpt>
      <trkpt lat="44.22515" lon="0.67974">
        <ele>90.5</ele>
        <time>2012-07-21T08:15:58Z</time>
      </trkpt>
      <trkpt lat="44.22521" lon="0.67975">
        <ele>89.54</ele>
        <time>2012-07-21T08:15:59Z</time>
      </trkpt>
      <trkpt lat="44.22528" lon="0.67975">
        <ele>89.06</ele>
        <time>2012-07-21T08:16:00Z</time>
      </trkpt>
      <trkpt lat="44.22535" lon="0.67974">
        <ele>89.06</ele>
        <time>2012-07-21T08:16:01Z</time>
      </trkpt>
      <trkpt lat="44.22541" lon="0.67973">
        <ele>88.58</ele>
        <time>2012-07-21T08:16:02Z</time>
      </trkpt>
      <trkpt lat="44.22546" lon="0.67972">
        <ele>88.1</ele>
        <time>2012-07-21T08:16:03Z</time>
      </trkpt>
      <trkpt lat="44.22557" lon="0.67971">
        <ele>88.1</ele>
        <time>2012-07-21T08:16:05Z</time>
      </trkpt>
      <trkpt lat="44.22577" lon="0.67965">
        <ele>87.62</ele>
        <time>2012-07-21T08:16:09Z</time>
      </trkpt>
      <trkpt lat="44.22586" lon="0.6796">
        <ele>86.18</ele>
        <time>2012-07-21T08:16:11Z</time>
      </trkpt>
      <trkpt lat="44.22591" lon="0.67957">
        <ele>86.18</ele>
        <time>2012-07-21T08:16:12Z</time>
      </trkpt>
      <trkpt lat="44.22607" lon="0.67948">
        <ele>83.77</ele>
        <time>2012-07-21T08:16:18Z</time>
      </trkpt>
      <trkpt lat="44.2261" lon="0.67951">
        <ele>82.81</ele>
        <time>2012-07-21T08:16:19Z</time>
      </trkpt>
      <trkpt lat="44.22613" lon="0.67957">
        <ele>82.33</ele>
        <time>2012-07-21T08:16:20Z</time>
      </trkpt>
      <trkpt lat="44.22616" lon="0.67964">
        <ele>81.85</ele>
        <time>2012-07-21T08:16:21Z</time>
      </trkpt>
      <trkpt lat="44.22618" lon="0.67972">
        <ele>81.37</ele>
        <time>2012-07-21T08:16:22Z</time>
      </trkpt>
      <trkpt lat="44.22624" lon="0.67998">
        <ele>80.41</ele>
        <time>2012-07-21T08:16:25Z</time>
      </trkpt>
      <trkpt lat="44.22626" lon="0.68005">
        <ele>80.41</ele>
        <time>2012-07-21T08:16:26Z</time>
      </trkpt>
      <trkpt lat="44.2264" lon="0.68039">
        <ele>82.33</ele>
        <time>2012-07-21T08:16:35Z</time>
      </trkpt>
      <trkpt lat="44.22656" lon="0.68053">
        <ele>83.77</ele>
        <time>2012-07-21T08:16:44Z</time>
      </trkpt>
      <trkpt lat="44.22657" lon="0.68054">
        <ele>83.77</ele>
        <time>2012-07-21T08:16:45Z</time>
      </trkpt>
      <trkpt lat="44.22658" lon="0.68054">
        <ele>84.25</ele>
        <time>2012-07-21T08:16:46Z</time>
      </trkpt>
      <trkpt lat="44.22659" lon="0.68055">
        <ele>84.73</ele>
        <time>2012-07-21T08:16:47Z</time>
      </trkpt>
      <trkpt lat="44.22661" lon="0.68056">
        <ele>84.73</ele>
        <time>2012-07-21T08:16:48Z</time>
      </trkpt>
      <trkpt lat="44.22663" lon="0.68057">
        <ele>85.69</ele>
        <time>2012-07-21T08:16:49Z</time>
      </trkpt>
      <trkpt lat="44.22664" lon="0.68057">
        <ele>85.69</ele>
        <time>2012-07-21T08:16:50Z</time>
      </trkpt>
      <trkpt lat="44.22665" lon="0.68058">
        <ele>86.18</ele>
        <time>2012-07-21T08:16:51Z</time>
      </trkpt>
      <trkpt lat="44.22667" lon="0.68059">
        <ele>86.18</ele>
        <time>2012-07-21T08:16:52Z</time>
      </trkpt>
      <trkpt lat="44.22684" lon="0.68065">
        <ele>89.06</ele>
        <time>2012-07-21T08:17:04Z</time>
      </trkpt>
      <trkpt lat="44.22692" lon="0.68071">
        <ele>90.98</ele>
        <time>2012-07-21T08:17:10Z</time>
      </trkpt>
      <trkpt lat="44.22694" lon="0.68072">
        <ele>90.98</ele>
        <time>2012-07-21T08:17:11Z</time>
      </trkpt>
      <trkpt lat="44.22695" lon="0.68072">
        <ele>90.98</ele>
        <time>2012-07-21T08:17:12Z</time>
      </trkpt>
      <trkpt lat="44.22713" lon="0.6808">
        <ele>93.39</ele>
        <time>2012-07-21T08:17:24Z</time>
      </trkpt>
      <trkpt lat="44.22739" lon="0.68092">
        <ele>94.83</ele>
        <time>2012-07-21T08:17:39Z</time>
      </trkpt>
      <trkpt lat="44.22759" lon="0.68114">
        <ele>96.27</ele>
        <time>2012-07-21T08:17:53Z</time>
      </trkpt>
      <trkpt lat="44.22761" lon="0.68116">
        <ele>96.75</ele>
        <time>2012-07-21T08:17:55Z</time>
      </trkpt>
      <trkpt lat="44.22763" lon="0.68117">
        <ele>97.23</ele>
        <time>2012-07-21T08:17:56Z</time>
      </trkpt>
      <trkpt lat="44.22764" lon="0.68119">
        <ele>96.75</ele>
        <time>2012-07-21T08:17:57Z</time>
      </trkpt>
      <trkpt lat="44.22778" lon="0.68135">
        <ele>98.19</ele>
        <time>2012-07-21T08:18:07Z</time>
      </trkpt>
      <trkpt lat="44.22799" lon="0.68161">
        <ele>100.11</ele>
        <time>2012-07-21T08:18:20Z</time>
      </trkpt>
      <trkpt lat="44.2281" lon="0.68174">
        <ele>101.08</ele>
        <time>2012-07-21T08:18:27Z</time>
      </trkpt>
      <trkpt lat="44.22817" lon="0.68211">
        <ele>102.52</ele>
        <time>2012-07-21T08:18:40Z</time>
      </trkpt>
      <trkpt lat="44.22831" lon="0.68251">
        <ele>103</ele>
        <time>2012-07-21T08:18:51Z</time>
      </trkpt>
      <trkpt lat="44.22854" lon="0.683">
        <ele>103.48</ele>
        <time>2012-07-21T08:19:02Z</time>
      </trkpt>
      <trkpt lat="44.22876" lon="0.68349">
        <ele>100.11</ele>
        <time>2012-07-21T08:19:10Z</time>
      </trkpt>
      <trkpt lat="44.2288" lon="0.68358">
        <ele>100.11</ele>
        <time>2012-07-21T08:19:11Z</time>
      </trkpt>
      <trkpt lat="44.22886" lon="0.68366">
        <ele>99.15</ele>
        <time>2012-07-21T08:19:12Z</time>
      </trkpt>
      <trkpt lat="44.22892" lon="0.68371">
        <ele>98.67</ele>
        <time>2012-07-21T08:19:13Z</time>
      </trkpt>
      <trkpt lat="44.22898" lon="0.68376">
        <ele>98.19</ele>
        <time>2012-07-21T08:19:14Z</time>
      </trkpt>
      <trkpt lat="44.22904" lon="0.68378">
        <ele>98.19</ele>
        <time>2012-07-21T08:19:15Z</time>
      </trkpt>
      <trkpt lat="44.2293" lon="0.68384">
        <ele>97.23</ele>
        <time>2012-07-21T08:19:21Z</time>
      </trkpt>
      <trkpt lat="44.22936" lon="0.68383">
        <ele>96.75</ele>
        <time>2012-07-21T08:19:22Z</time>
      </trkpt>
      <trkpt lat="44.22949" lon="0.68382">
        <ele>95.79</ele>
        <time>2012-07-21T08:19:24Z</time>
      </trkpt>
      <trkpt lat="44.22986" lon="0.68376">
        <ele>92.9</ele>
        <time>2012-07-21T08:19:29Z</time>
      </trkpt>
      <trkpt lat="44.22994" lon="0.68375">
        <ele>92.42</ele>
        <time>2012-07-21T08:19:30Z</time>
      </trkpt>
      <trkpt lat="44.23049" lon="0.6836">
        <ele>90.02</ele>
        <time>2012-07-21T08:19:37Z</time>
      </trkpt>
      <trkpt lat="44.23056" lon="0.68354">
        <ele>89.54</ele>
        <time>2012-07-21T08:19:38Z</time>
      </trkpt>
      <trkpt lat="44.23063" lon="0.68347">
        <ele>89.06</ele>
        <time>2012-07-21T08:19:39Z</time>
      </trkpt>
      <trkpt lat="44.23069" lon="0.68337">
        <ele>88.58</ele>
        <time>2012-07-21T08:19:40Z</time>
      </trkpt>
      <trkpt lat="44.23074" lon="0.68327">
        <ele>87.62</ele>
        <time>2012-07-21T08:19:41Z</time>
      </trkpt>
      <trkpt lat="44.23079" lon="0.68317">
        <ele>87.14</ele>
        <time>2012-07-21T08:19:42Z</time>
      </trkpt>
      <trkpt lat="44.23083" lon="0.68306">
        <ele>87.14</ele>
        <time>2012-07-21T08:19:43Z</time>
      </trkpt>
      <trkpt lat="44.23085" lon="0.68297">
        <ele>86.66</ele>
        <time>2012-07-21T08:19:44Z</time>
      </trkpt>
      <trkpt lat="44.2309" lon="0.68282">
        <ele>85.21</ele>
        <time>2012-07-21T08:19:46Z</time>
      </trkpt>
      <trkpt lat="44.23096" lon="0.68279">
        <ele>85.21</ele>
        <time>2012-07-21T08:19:47Z</time>
      </trkpt>
      <trkpt lat="44.23102" lon="0.68279">
        <ele>85.21</ele>
        <time>2012-07-21T08:19:48Z</time>
      </trkpt>
      <trkpt lat="44.23108" lon="0.6828">
        <ele>85.21</ele>
        <time>2012-07-21T08:19:49Z</time>
      </trkpt>
      <trkpt lat="44.23114" lon="0.68279">
        <ele>85.21</ele>
        <time>2012-07-21T08:19:50Z</time>
      </trkpt>
      <trkpt lat="44.23118" lon="0.68276">
        <ele>85.69</ele>
        <time>2012-07-21T08:19:51Z</time>
      </trkpt>
      <trkpt lat="44.23121" lon="0.68269">
        <ele>84.73</ele>
        <time>2012-07-21T08:19:52Z</time>
      </trkpt>
      <trkpt lat="44.23124" lon="0.6826">
        <ele>83.77</ele>
        <time>2012-07-21T08:19:53Z</time>
      </trkpt>
      <trkpt lat="44.23128" lon="0.68251">
        <ele>82.81</ele>
        <time>2012-07-21T08:19:54Z</time>
      </trkpt>
      <trkpt lat="44.23135" lon="0.68229">
        <ele>80.41</ele>
        <time>2012-07-21T08:19:56Z</time>
      </trkpt>
      <trkpt lat="44.23141" lon="0.68219">
        <ele>78.97</ele>
        <time>2012-07-21T08:19:57Z</time>
      </trkpt>
      <trkpt lat="44.2315" lon="0.68212">
        <ele>76.08</ele>
        <time>2012-07-21T08:19:58Z</time>
      </trkpt>
      <trkpt lat="44.2316" lon="0.68206">
        <ele>74.64</ele>
        <time>2012-07-21T08:19:59Z</time>
      </trkpt>
      <trkpt lat="44.2317" lon="0.68201">
        <ele>74.16</ele>
        <time>2012-07-21T08:20:00Z</time>
      </trkpt>
      <trkpt lat="44.23179" lon="0.68195">
        <ele>74.16</ele>
        <time>2012-07-21T08:20:01Z</time>
      </trkpt>
      <trkpt lat="44.23191" lon="0.68187">
        <ele>72.72</ele>
        <time>2012-07-21T08:20:03Z</time>
      </trkpt>
      <trkpt lat="44.23194" lon="0.68187">
        <ele>72.24</ele>
        <time>2012-07-21T08:20:04Z</time>
      </trkpt>
      <trkpt lat="44.23197" lon="0.6819">
        <ele>71.76</ele>
        <time>2012-07-21T08:20:05Z</time>
      </trkpt>
      <trkpt lat="44.23199" lon="0.68197">
        <ele>71.27</ele>
        <time>2012-07-21T08:20:06Z</time>
      </trkpt>
      <trkpt lat="44.232" lon="0.68203">
        <ele>70.79</ele>
        <time>2012-07-21T08:20:07Z</time>
      </trkpt>
      <trkpt lat="44.23201" lon="0.6821">
        <ele>70.79</ele>
        <time>2012-07-21T08:20:08Z</time>
      </trkpt>
      <trkpt lat="44.23202" lon="0.68216">
        <ele>70.79</ele>
        <time>2012-07-21T08:20:09Z</time>
      </trkpt>
      <trkpt lat="44.23205" lon="0.68221">
        <ele>70.79</ele>
        <time>2012-07-21T08:20:10Z</time>
      </trkpt>
      <trkpt lat="44.23208" lon="0.68224">
        <ele>70.79</ele>
        <time>2012-07-21T08:20:11Z</time>
      </trkpt>
      <trkpt lat="44.23212" lon="0.68225">
        <ele>70.79</ele>
        <time>2012-07-21T08:20:12Z</time>
      </trkpt>
      <trkpt lat="44.23215" lon="0.68225">
        <ele>71.27</ele>
        <time>2012-07-21T08:20:13Z</time>
      </trkpt>
      <trkpt lat="44.23216" lon="0.68225">
        <ele>71.27</ele>
        <time>2012-07-21T08:20:14Z</time>
      </trkpt>
      <trkpt lat="44.23217" lon="0.68224">
        <ele>70.79</ele>
        <time>2012-07-21T08:20:15Z</time>
      </trkpt>
      <trkpt lat="44.23218" lon="0.68223">
        <ele>70.79</ele>
        <time>2012-07-21T08:20:16Z</time>
      </trkpt>
      <trkpt lat="44.23218" lon="0.6822">
        <ele>71.27</ele>
        <time>2012-07-21T08:20:17Z</time>
      </trkpt>
      <trkpt lat="44.23218" lon="0.68218">
        <ele>71.27</ele>
        <time>2012-07-21T08:20:18Z</time>
      </trkpt>
      <trkpt lat="44.23216" lon="0.68218">
        <ele>70.79</ele>
        <time>2012-07-21T08:20:19Z</time>
      </trkpt>
      <trkpt lat="44.23214" lon="0.68219">
        <ele>71.27</ele>
        <time>2012-07-21T08:20:20Z</time>
      </trkpt>
      <trkpt lat="44.23212" lon="0.68219">
        <ele>74.64</ele>
        <time>2012-07-21T08:20:31Z</time>
      </trkpt>
      <trkpt lat="44.23212" lon="0.68219">
        <ele>71.76</ele>
        <time>2012-07-21T08:20:32Z</time>
      </trkpt>
    </trkseg>
  </trk>
</gpx>